<?xml version='1.0' encoding='UTF-8'?><gpx version="1.1" creator="JPX - https://github.com/jenetics/jpx" xmlns="http://www.topografix.com/GPX/1/1"><trk><trkseg><trkpt lat="42.0790424" lon="13.4095917"><ele>962.8571428571427</ele><time>2026-04-12T08:51:36.1Z</time></trkpt><trkpt lat="42.0791109" lon="13.4095641"><ele>963.7142857142857</ele><time>2026-04-12T08:51:43.099Z</time></trkpt><trkpt lat="42.0791722" lon="13.4095358"><ele>964.5714285714284</ele><time>2026-04-12T08:51:49.102Z</time></trkpt><trkpt lat="42.0791465" lon="13.4096204"><ele>965.4285714285713</ele><time>2026-04-12T08:52:10.098Z</time></trkpt><trkpt lat="42.0791214" lon="13.4097074"><ele>966.2857142857142</ele><time>2026-04-12T08:52:17.101Z</time></trkpt><trkpt lat="42.0791181" lon="13.4097931"><ele>967.1428571428571</ele><time>2026-04-12T08:52:22.097Z</time></trkpt><trkpt lat="42.0790911" lon="13.409878"><ele>968.0</ele><time>2026-04-12T08:52:30.101Z</time></trkpt><trkpt lat="42.0790306" lon="13.4099268"><ele>968.7142857142857</ele><time>2026-04-12T08:52:36.14Z</time></trkpt><trkpt lat="42.0789739" lon="13.4099801"><ele>969.4285714285713</ele><time>2026-04-12T08:52:55.102Z</time></trkpt><trkpt lat="42.0789181" lon="13.4100199"><ele>970.1428571428571</ele><time>2026-04-12T08:53:00.169Z</time></trkpt><trkpt lat="42.0789095" lon="13.4101147"><ele>970.8571428571429</ele><time>2026-04-12T08:53:05.113Z</time></trkpt><trkpt lat="42.0788518" lon="13.4101646"><ele>971.5714285714286</ele><time>2026-04-12T08:53:11.101Z</time></trkpt><trkpt lat="42.0787939" lon="13.4102072"><ele>972.2857142857142</ele><time>2026-04-12T08:53:18.102Z</time></trkpt><trkpt lat="42.078739" lon="13.4102652"><ele>973.0</ele><time>2026-04-12T08:53:25.099Z</time></trkpt><trkpt lat="42.0786886" lon="13.4103177"><ele>973.0</ele><time>2026-04-12T08:53:32.101Z</time></trkpt><trkpt lat="42.0786251" lon="13.4103464"><ele>973.0</ele><time>2026-04-12T08:53:39.028Z</time></trkpt><trkpt lat="42.0785714" lon="13.4104004"><ele>973.0</ele><time>2026-04-12T08:55:46.102Z</time></trkpt><trkpt lat="42.0785093" lon="13.4104327"><ele>973.0</ele><time>2026-04-12T08:55:52.1Z</time></trkpt><trkpt lat="42.0784491" lon="13.4104631"><ele>973.0</ele><time>2026-04-12T08:55:58.137Z</time></trkpt><trkpt lat="42.0783916" lon="13.4104211"><ele>973.0</ele><time>2026-04-12T08:56:05.102Z</time></trkpt><trkpt lat="42.0783283" lon="13.41046"><ele>973.0</ele><time>2026-04-12T08:56:12.037Z</time></trkpt><trkpt lat="42.0782689" lon="13.4105102"><ele>975.7142857142858</ele><time>2026-04-12T08:56:19.096Z</time></trkpt><trkpt lat="42.078222" lon="13.4105898"><ele>978.4285714285714</ele><time>2026-04-12T08:56:26.104Z</time></trkpt><trkpt lat="42.0781509" lon="13.4106019"><ele>981.1428571428571</ele><time>2026-04-12T08:56:36.098Z</time></trkpt><trkpt lat="42.0780842" lon="13.4105948"><ele>983.8571428571429</ele><time>2026-04-12T08:56:42.911Z</time></trkpt><trkpt lat="42.0780209" lon="13.4105937"><ele>986.5714285714287</ele><time>2026-04-12T08:57:05.097Z</time></trkpt><trkpt lat="42.0779576" lon="13.4106373"><ele>989.2857142857143</ele><time>2026-04-12T08:57:12.095Z</time></trkpt><trkpt lat="42.0779039" lon="13.4106869"><ele>992.0</ele><time>2026-04-12T08:57:21.135Z</time></trkpt><trkpt lat="42.077836" lon="13.4106928"><ele>992.0</ele><time>2026-04-12T08:57:26.097Z</time></trkpt><trkpt lat="42.0777737" lon="13.4107445"><ele>992.0000000000001</ele><time>2026-04-12T08:57:33.105Z</time></trkpt><trkpt lat="42.0777132" lon="13.4107837"><ele>992.0</ele><time>2026-04-12T08:57:40.097Z</time></trkpt><trkpt lat="42.0776527" lon="13.4108122"><ele>992.0</ele><time>2026-04-12T08:57:47.097Z</time></trkpt><trkpt lat="42.0775891" lon="13.4108462"><ele>992.0000000000001</ele><time>2026-04-12T08:57:55.071Z</time></trkpt><trkpt lat="42.077522" lon="13.4108782"><ele>992.0</ele><time>2026-04-12T08:58:07.108Z</time></trkpt><trkpt lat="42.077452" lon="13.4108927"><ele>992.0</ele><time>2026-04-12T08:58:13.15Z</time></trkpt><trkpt lat="42.0773872" lon="13.4109178"><ele>992.8571428571429</ele><time>2026-04-12T08:58:20.097Z</time></trkpt><trkpt lat="42.0773237" lon="13.4109111"><ele>993.7142857142858</ele><time>2026-04-12T08:58:27.126Z</time></trkpt><trkpt lat="42.0772677" lon="13.4108559"><ele>994.5714285714287</ele><time>2026-04-12T08:58:48.098Z</time></trkpt><trkpt lat="42.0772039" lon="13.410867"><ele>995.4285714285716</ele><time>2026-04-12T08:58:59.095Z</time></trkpt><trkpt lat="42.0771621" lon="13.4109394"><ele>996.2857142857143</ele><time>2026-04-12T08:59:09.095Z</time></trkpt><trkpt lat="42.0771896" lon="13.4110159"><ele>997.1428571428573</ele><time>2026-04-12T08:59:48.101Z</time></trkpt><trkpt lat="42.0772592" lon="13.4110256"><ele>998.0000000000001</ele><time>2026-04-12T08:59:55.097Z</time></trkpt><trkpt lat="42.0771934" lon="13.4110236"><ele>998.0000000000001</ele><time>2026-04-12T09:02:01.102Z</time></trkpt><trkpt lat="42.0772018" lon="13.4109293"><ele>998.0</ele><time>2026-04-12T09:02:09.098Z</time></trkpt><trkpt lat="42.0772131" lon="13.4108436"><ele>998.0000000000001</ele><time>2026-04-12T09:02:26.098Z</time></trkpt><trkpt lat="42.0771851" lon="13.4107621"><ele>998.0000000000001</ele><time>2026-04-12T09:03:25.096Z</time></trkpt><trkpt lat="42.0771663" lon="13.410676"><ele>998.0</ele><time>2026-04-12T09:03:34.097Z</time></trkpt><trkpt lat="42.0771391" lon="13.4105896"><ele>998.0000000000001</ele><time>2026-04-12T09:03:40.126Z</time></trkpt><trkpt lat="42.0771189" lon="13.4104979"><ele>998.0000000000001</ele><time>2026-04-12T09:03:47.096Z</time></trkpt><trkpt lat="42.0770598" lon="13.4104521"><ele>998.0000000000001</ele><time>2026-04-12T09:03:54.138Z</time></trkpt><trkpt lat="42.0770901" lon="13.4103772"><ele>998.0</ele><time>2026-04-12T09:05:08.098Z</time></trkpt><trkpt lat="42.0770318" lon="13.4104151"><ele>998.0000000000001</ele><time>2026-04-12T09:05:16.1Z</time></trkpt><trkpt lat="42.0769696" lon="13.4104422"><ele>998.0000000000001</ele><time>2026-04-12T09:05:47.159Z</time></trkpt><trkpt lat="42.0769792" lon="13.4105262"><ele>998.0</ele><time>2026-04-12T09:05:52.096Z</time></trkpt><trkpt lat="42.0769197" lon="13.410577"><ele>998.0000000000001</ele><time>2026-04-12T09:05:58.129Z</time></trkpt><trkpt lat="42.0768512" lon="13.4106101"><ele>998.0000000000001</ele><time>2026-04-12T09:06:05.098Z</time></trkpt><trkpt lat="42.076786" lon="13.4106247"><ele>998.0000000000001</ele><time>2026-04-12T09:06:13.122Z</time></trkpt><trkpt lat="42.0767884" lon="13.4107116"><ele>998.0</ele><time>2026-04-12T09:06:21.098Z</time></trkpt><trkpt lat="42.0767163" lon="13.4107063"><ele>998.0000000000001</ele><time>2026-04-12T09:07:36.105Z</time></trkpt><trkpt lat="42.0766499" lon="13.4107306"><ele>998.0000000000001</ele><time>2026-04-12T09:07:42.097Z</time></trkpt><trkpt lat="42.0765885" lon="13.4107499"><ele>998.0</ele><time>2026-04-12T09:07:47.097Z</time></trkpt><trkpt lat="42.076523" lon="13.4107584"><ele>998.0000000000001</ele><time>2026-04-12T09:07:57.094Z</time></trkpt><trkpt lat="42.0764943" lon="13.4108341"><ele>998.0000000000001</ele><time>2026-04-12T09:08:03.13Z</time></trkpt><trkpt lat="42.0765081" lon="13.4109311"><ele>996.5714285714287</ele><time>2026-04-12T09:08:17.096Z</time></trkpt><trkpt lat="42.0765049" lon="13.4110182"><ele>995.1428571428571</ele><time>2026-04-12T09:08:22.098Z</time></trkpt><trkpt lat="42.0765258" lon="13.4111089"><ele>993.7142857142858</ele><time>2026-04-12T09:08:33.099Z</time></trkpt><trkpt lat="42.0765287" lon="13.4112024"><ele>992.2857142857143</ele><time>2026-04-12T09:08:39.097Z</time></trkpt><trkpt lat="42.0765342" lon="13.4112915"><ele>990.8571428571429</ele><time>2026-04-12T09:08:45.094Z</time></trkpt><trkpt lat="42.0765926" lon="13.411328"><ele>989.4285714285714</ele><time>2026-04-12T09:08:56.098Z</time></trkpt><trkpt lat="42.0766212" lon="13.4114052"><ele>988.0</ele><time>2026-04-12T09:09:03.095Z</time></trkpt><trkpt lat="42.0766907" lon="13.4114191"><ele>988.0</ele><time>2026-04-12T09:09:12.097Z</time></trkpt><trkpt lat="42.0767509" lon="13.4113709"><ele>988.0</ele><time>2026-04-12T09:09:20.1Z</time></trkpt><trkpt lat="42.0767948" lon="13.4113072"><ele>988.0</ele><time>2026-04-12T09:09:24.079Z</time></trkpt><trkpt lat="42.0768437" lon="13.4112482"><ele>988.0</ele><time>2026-04-12T09:09:30.107Z</time></trkpt><trkpt lat="42.0768957" lon="13.4111985"><ele>988.0</ele><time>2026-04-12T09:09:36.095Z</time></trkpt><trkpt lat="42.0769567" lon="13.4111724"><ele>988.0</ele><time>2026-04-12T09:09:42.016Z</time></trkpt><trkpt lat="42.0770157" lon="13.4111184"><ele>988.0</ele><time>2026-04-12T09:09:48.122Z</time></trkpt><trkpt lat="42.0770608" lon="13.4110579"><ele>989.6666666666666</ele><time>2026-04-12T09:09:54.098Z</time></trkpt><trkpt lat="42.0771067" lon="13.4109945"><ele>991.3333333333333</ele><time>2026-04-12T09:10:00.099Z</time></trkpt><trkpt lat="42.0771449" lon="13.410921"><ele>993.0</ele><time>2026-04-12T09:10:06.122Z</time></trkpt><trkpt lat="42.0771275" lon="13.4108353"><ele>994.6666666666667</ele><time>2026-04-12T09:12:39.098Z</time></trkpt><trkpt lat="42.0771569" lon="13.4107425"><ele>996.3333333333334</ele><time>2026-04-12T09:12:43.099Z</time></trkpt><trkpt lat="42.0770267" lon="13.4108393"><ele>998.0</ele><time>2026-04-12T09:13:10.095Z</time></trkpt><trkpt lat="42.0770042" lon="13.4107495"><ele>998.0000000000001</ele><time>2026-04-12T09:13:14.094Z</time></trkpt><trkpt lat="42.077017" lon="13.4106584"><ele>998.0</ele><time>2026-04-12T09:13:20.094Z</time></trkpt><trkpt lat="42.077075" lon="13.4106932"><ele>998.0000000000001</ele><time>2026-04-12T09:14:00.094Z</time></trkpt><trkpt lat="42.0770293" lon="13.4106309"><ele>998.0000000000001</ele><time>2026-04-12T09:18:49.096Z</time></trkpt><trkpt lat="42.0770655" lon="13.4107019"><ele>998.0</ele><time>2026-04-12T09:20:06.116Z</time></trkpt><trkpt lat="42.0771236" lon="13.410766"><ele>998.0000000000001</ele><time>2026-04-12T09:21:04.293Z</time></trkpt><trkpt lat="42.0771238" lon="13.4108568"><ele>998.0000000000001</ele><time>2026-04-12T09:21:54.058Z</time></trkpt><trkpt lat="42.0771123" lon="13.4109453"><ele>998.0000000000001</ele><time>2026-04-12T09:22:01.095Z</time></trkpt><trkpt lat="42.0770876" lon="13.4110414"><ele>998.0</ele><time>2026-04-12T09:22:07.096Z</time></trkpt><trkpt lat="42.0770623" lon="13.4111256"><ele>998.0000000000001</ele><time>2026-04-12T09:22:12.102Z</time></trkpt><trkpt lat="42.0770409" lon="13.4112115"><ele>998.0000000000001</ele><time>2026-04-12T09:22:18.177Z</time></trkpt><trkpt lat="42.0770009" lon="13.4112851"><ele>998.0</ele><time>2026-04-12T09:22:24.069Z</time></trkpt><trkpt lat="42.0769532" lon="13.4113548"><ele>998.0000000000001</ele><time>2026-04-12T09:22:30.112Z</time></trkpt><trkpt lat="42.0769017" lon="13.4114045"><ele>998.0000000000001</ele><time>2026-04-12T09:22:36.148Z</time></trkpt><trkpt lat="42.0768393" lon="13.4113869"><ele>996.5714285714287</ele><time>2026-04-12T09:22:44.958Z</time></trkpt><trkpt lat="42.0767769" lon="13.4113692"><ele>995.1428571428571</ele><time>2026-04-12T09:22:50.131Z</time></trkpt><trkpt lat="42.0767044" lon="13.4113842"><ele>993.7142857142858</ele><time>2026-04-12T09:22:56.094Z</time></trkpt><trkpt lat="42.0766507" lon="13.4114489"><ele>992.2857142857143</ele><time>2026-04-12T09:23:02.104Z</time></trkpt><trkpt lat="42.076613" lon="13.411529"><ele>990.8571428571429</ele><time>2026-04-12T09:23:12.096Z</time></trkpt><trkpt lat="42.0765849" lon="13.4116109"><ele>989.4285714285714</ele><time>2026-04-12T09:23:55.094Z</time></trkpt><trkpt lat="42.0765692" lon="13.4117135"><ele>988.0</ele><time>2026-04-12T09:24:02.096Z</time></trkpt><trkpt lat="42.0765782" lon="13.4117985"><ele>987.2857142857143</ele><time>2026-04-12T09:24:10.137Z</time></trkpt><trkpt lat="42.0765476" lon="13.4118755"><ele>986.5714285714284</ele><time>2026-04-12T09:24:19.095Z</time></trkpt><trkpt lat="42.0765248" lon="13.4119662"><ele>985.8571428571428</ele><time>2026-04-12T09:24:26.135Z</time></trkpt><trkpt lat="42.0765226" lon="13.4120511"><ele>985.1428571428571</ele><time>2026-04-12T09:24:33.112Z</time></trkpt><trkpt lat="42.0765441" lon="13.4121326"><ele>984.4285714285713</ele><time>2026-04-12T09:24:40.119Z</time></trkpt><trkpt lat="42.0764763" lon="13.4121679"><ele>983.7142857142856</ele><time>2026-04-12T09:24:49.048Z</time></trkpt><trkpt lat="42.0764219" lon="13.4122159"><ele>982.9999999999999</ele><time>2026-04-12T09:24:56.115Z</time></trkpt><trkpt lat="42.0764506" lon="13.4122959"><ele>981.7142857142856</ele><time>2026-04-12T09:25:04.028Z</time></trkpt><trkpt lat="42.0765195" lon="13.412294"><ele>980.4285714285713</ele><time>2026-04-12T09:25:09.161Z</time></trkpt><trkpt lat="42.0765837" lon="13.4123034"><ele>979.1428571428571</ele><time>2026-04-12T09:25:15.129Z</time></trkpt><trkpt lat="42.0766444" lon="13.4123562"><ele>977.8571428571428</ele><time>2026-04-12T09:25:22.094Z</time></trkpt><trkpt lat="42.0767129" lon="13.4123858"><ele>976.5714285714284</ele><time>2026-04-12T09:25:29.113Z</time></trkpt><trkpt lat="42.0767764" lon="13.4123465"><ele>975.2857142857143</ele><time>2026-04-12T09:25:35.093Z</time></trkpt><trkpt lat="42.0768011" lon="13.4124314"><ele>974.0</ele><time>2026-04-12T09:25:55.095Z</time></trkpt><trkpt lat="42.0767981" lon="13.4125217"><ele>974.0</ele><time>2026-04-12T09:26:00.095Z</time></trkpt><trkpt lat="42.0768234" lon="13.4124289"><ele>974.0</ele><time>2026-04-12T09:26:51.159Z</time></trkpt><trkpt lat="42.0767904" lon="13.412355"><ele>974.0</ele><time>2026-04-12T09:26:56.093Z</time></trkpt><trkpt lat="42.0767245" lon="13.4123646"><ele>974.0</ele><time>2026-04-12T09:27:02.092Z</time></trkpt><trkpt lat="42.0766754" lon="13.4124283"><ele>974.0</ele><time>2026-04-12T09:27:08.094Z</time></trkpt><trkpt lat="42.0766564" lon="13.4125173"><ele>974.0</ele><time>2026-04-12T09:27:14.094Z</time></trkpt><trkpt lat="42.0766315" lon="13.4125953"><ele>974.0</ele><time>2026-04-12T09:27:20.093Z</time></trkpt><trkpt lat="42.0766536" lon="13.4126844"><ele>974.0</ele><time>2026-04-12T09:27:37.093Z</time></trkpt><trkpt lat="42.0766761" lon="13.4127713"><ele>974.0</ele><time>2026-04-12T09:27:56.094Z</time></trkpt><trkpt lat="42.0766752" lon="13.4128579"><ele>974.0</ele><time>2026-04-12T09:28:15.093Z</time></trkpt><trkpt lat="42.076746" lon="13.4128566"><ele>974.0</ele><time>2026-04-12T09:28:34.051Z</time></trkpt><trkpt lat="42.0768163" lon="13.4128675"><ele>974.0</ele><time>2026-04-12T09:28:42.133Z</time></trkpt><trkpt lat="42.0768755" lon="13.4128268"><ele>974.0</ele><time>2026-04-12T09:28:49.094Z</time></trkpt><trkpt lat="42.0769182" lon="13.4127427"><ele>974.0</ele><time>2026-04-12T09:28:58.129Z</time></trkpt><trkpt lat="42.0769846" lon="13.4127077"><ele>974.0</ele><time>2026-04-12T09:29:05.093Z</time></trkpt><trkpt lat="42.0770484" lon="13.4127243"><ele>974.0</ele><time>2026-04-12T09:29:11.106Z</time></trkpt><trkpt lat="42.0771076" lon="13.412686"><ele>974.0</ele><time>2026-04-12T09:29:19.093Z</time></trkpt><trkpt lat="42.0771711" lon="13.4126802"><ele>974.0</ele><time>2026-04-12T09:29:25.096Z</time></trkpt><trkpt lat="42.0772344" lon="13.4126518"><ele>974.0</ele><time>2026-04-12T09:29:31.126Z</time></trkpt><trkpt lat="42.077299" lon="13.4126179"><ele>974.0</ele><time>2026-04-12T09:29:37.108Z</time></trkpt><trkpt lat="42.0773565" lon="13.4125765"><ele>974.0</ele><time>2026-04-12T09:29:43.099Z</time></trkpt><trkpt lat="42.0774113" lon="13.4125161"><ele>973.5714285714287</ele><time>2026-04-12T09:29:50.14Z</time></trkpt><trkpt lat="42.0774569" lon="13.4124519"><ele>973.1428571428571</ele><time>2026-04-12T09:29:56.092Z</time></trkpt><trkpt lat="42.0774895" lon="13.4123657"><ele>972.7142857142858</ele><time>2026-04-12T09:30:02.113Z</time></trkpt><trkpt lat="42.077518" lon="13.4122866"><ele>972.2857142857143</ele><time>2026-04-12T09:30:08.092Z</time></trkpt><trkpt lat="42.077555" lon="13.4122176"><ele>971.8571428571429</ele><time>2026-04-12T09:30:16.096Z</time></trkpt><trkpt lat="42.0775641" lon="13.4121325"><ele>971.4285714285714</ele><time>2026-04-12T09:30:22.131Z</time></trkpt><trkpt lat="42.0776088" lon="13.4120684"><ele>971.0</ele><time>2026-04-12T09:30:31.101Z</time></trkpt><trkpt lat="42.0775619" lon="13.4121455"><ele>972.4285714285714</ele><time>2026-04-12T09:31:01.229Z</time></trkpt><trkpt lat="42.0775703" lon="13.4120551"><ele>973.8571428571429</ele><time>2026-04-12T09:31:14.013Z</time></trkpt><trkpt lat="42.0776405" lon="13.4120377"><ele>975.2857142857143</ele><time>2026-04-12T09:31:19.109Z</time></trkpt><trkpt lat="42.0776838" lon="13.4119733"><ele>976.7142857142858</ele><time>2026-04-12T09:31:25.095Z</time></trkpt><trkpt lat="42.0777078" lon="13.4118922"><ele>978.1428571428571</ele><time>2026-04-12T09:31:33.007Z</time></trkpt><trkpt lat="42.077771" lon="13.4118655"><ele>979.5714285714287</ele><time>2026-04-12T09:31:39.159Z</time></trkpt><trkpt lat="42.0778197" lon="13.411793"><ele>981.0</ele><time>2026-04-12T09:31:45.05Z</time></trkpt><trkpt lat="42.0777611" lon="13.4117466"><ele>981.0</ele><time>2026-04-12T09:31:55.127Z</time></trkpt><trkpt lat="42.0776977" lon="13.4117798"><ele>981.0</ele><time>2026-04-12T09:32:01.097Z</time></trkpt><trkpt lat="42.0776405" lon="13.4118312"><ele>981.0</ele><time>2026-04-12T09:32:07.098Z</time></trkpt><trkpt lat="42.0776004" lon="13.4118991"><ele>981.0</ele><time>2026-04-12T09:32:15.094Z</time></trkpt><trkpt lat="42.0775437" lon="13.4119447"><ele>981.0</ele><time>2026-04-12T09:32:23.009Z</time></trkpt><trkpt lat="42.0774747" lon="13.4119909"><ele>981.0</ele><time>2026-04-12T09:32:30.111Z</time></trkpt><trkpt lat="42.0774305" lon="13.4120642"><ele>981.0</ele><time>2026-04-12T09:33:26.385Z</time></trkpt><trkpt lat="42.0773768" lon="13.4121114"><ele>982.1666666666666</ele><time>2026-04-12T09:33:31.114Z</time></trkpt><trkpt lat="42.077311" lon="13.4121523"><ele>983.3333333333333</ele><time>2026-04-12T09:34:33.104Z</time></trkpt><trkpt lat="42.0773091" lon="13.4122441"><ele>984.5</ele><time>2026-04-12T09:34:39.116Z</time></trkpt><trkpt lat="42.0772529" lon="13.4122994"><ele>985.6666666666666</ele><time>2026-04-12T09:34:44.093Z</time></trkpt><trkpt lat="42.0772877" lon="13.4121901"><ele>986.8333333333333</ele><time>2026-04-12T09:35:11.145Z</time></trkpt><trkpt lat="42.0773519" lon="13.4121439"><ele>988.0</ele><time>2026-04-12T09:35:21.056Z</time></trkpt><trkpt lat="42.0774117" lon="13.4120637"><ele>988.0</ele><time>2026-04-12T09:35:58.14Z</time></trkpt><trkpt lat="42.0773477" lon="13.4120742"><ele>988.0</ele><time>2026-04-12T09:37:07.084Z</time></trkpt><trkpt lat="42.0772743" lon="13.4121038"><ele>988.0</ele><time>2026-04-12T09:37:13.095Z</time></trkpt><trkpt lat="42.0772134" lon="13.4121264"><ele>988.0</ele><time>2026-04-12T09:37:19.094Z</time></trkpt><trkpt lat="42.0771489" lon="13.4121299"><ele>988.0</ele><time>2026-04-12T09:37:25.095Z</time></trkpt><trkpt lat="42.0771413" lon="13.4120451"><ele>988.0</ele><time>2026-04-12T09:37:49.1Z</time></trkpt><trkpt lat="42.07708" lon="13.4120798"><ele>988.0</ele><time>2026-04-12T09:37:59.144Z</time></trkpt><trkpt lat="42.0771417" lon="13.4121003"><ele>988.0</ele><time>2026-04-12T09:39:15.093Z</time></trkpt><trkpt lat="42.0772172" lon="13.4121071"><ele>988.0</ele><time>2026-04-12T09:39:30.087Z</time></trkpt><trkpt lat="42.0772756" lon="13.4121425"><ele>988.0</ele><time>2026-04-12T09:39:35.093Z</time></trkpt><trkpt lat="42.0773416" lon="13.4121475"><ele>988.0</ele><time>2026-04-12T09:39:42.116Z</time></trkpt><trkpt lat="42.0774059" lon="13.4121174"><ele>988.0</ele><time>2026-04-12T09:39:47.092Z</time></trkpt><trkpt lat="42.0774761" lon="13.4120853"><ele>988.0</ele><time>2026-04-12T09:39:54.093Z</time></trkpt><trkpt lat="42.077506" lon="13.4120106"><ele>988.0</ele><time>2026-04-12T09:40:06.048Z</time></trkpt><trkpt lat="42.0775569" lon="13.4119583"><ele>987.0</ele><time>2026-04-12T09:40:12.101Z</time></trkpt><trkpt lat="42.0776203" lon="13.4119018"><ele>986.0</ele><time>2026-04-12T09:41:19.092Z</time></trkpt><trkpt lat="42.0776816" lon="13.411865"><ele>985.0</ele><time>2026-04-12T09:41:24.092Z</time></trkpt><trkpt lat="42.0777377" lon="13.4118114"><ele>984.0</ele><time>2026-04-12T09:41:31.121Z</time></trkpt><trkpt lat="42.0777922" lon="13.4117681"><ele>983.0</ele><time>2026-04-12T09:41:38.091Z</time></trkpt><trkpt lat="42.0777503" lon="13.4118373"><ele>982.0</ele><time>2026-04-12T09:41:51.091Z</time></trkpt><trkpt lat="42.077715" lon="13.4119152"><ele>981.0</ele><time>2026-04-12T09:41:57.093Z</time></trkpt><trkpt lat="42.0776801" lon="13.4119903"><ele>981.0</ele><time>2026-04-12T09:42:06.16Z</time></trkpt><trkpt lat="42.077621" lon="13.4120424"><ele>981.0</ele><time>2026-04-12T09:42:11.009Z</time></trkpt><trkpt lat="42.0775545" lon="13.4120469"><ele>981.0</ele><time>2026-04-12T09:42:17.102Z</time></trkpt><trkpt lat="42.0774965" lon="13.4120139"><ele>981.0</ele><time>2026-04-12T09:42:27.09Z</time></trkpt><trkpt lat="42.0775656" lon="13.412051"><ele>981.0</ele><time>2026-04-12T09:43:57.066Z</time></trkpt><trkpt lat="42.0776373" lon="13.4120417"><ele>981.0</ele><time>2026-04-12T09:44:04.097Z</time></trkpt><trkpt lat="42.0776846" lon="13.4119679"><ele>981.0</ele><time>2026-04-12T09:44:10.133Z</time></trkpt><trkpt lat="42.0777252" lon="13.4118853"><ele>981.0</ele><time>2026-04-12T09:44:16.095Z</time></trkpt><trkpt lat="42.0777734" lon="13.4118141"><ele>981.0</ele><time>2026-04-12T09:44:22.107Z</time></trkpt><trkpt lat="42.0778035" lon="13.4118936"><ele>981.0</ele><time>2026-04-12T09:44:33.03Z</time></trkpt><trkpt lat="42.0778226" lon="13.4119885"><ele>981.0</ele><time>2026-04-12T09:46:20.091Z</time></trkpt><trkpt lat="42.077811" lon="13.4120871"><ele>981.0</ele><time>2026-04-12T09:46:27.09Z</time></trkpt><trkpt lat="42.0778149" lon="13.4121727"><ele>981.0</ele><time>2026-04-12T09:46:33.122Z</time></trkpt><trkpt lat="42.0778163" lon="13.4122713"><ele>981.0</ele><time>2026-04-12T09:46:50.126Z</time></trkpt><trkpt lat="42.077795" lon="13.4123529"><ele>979.5714285714287</ele><time>2026-04-12T09:46:55.112Z</time></trkpt><trkpt lat="42.0777923" lon="13.4124495"><ele>978.1428571428571</ele><time>2026-04-12T09:47:07.13Z</time></trkpt><trkpt lat="42.0778007" lon="13.4125337"><ele>976.7142857142858</ele><time>2026-04-12T09:47:13.094Z</time></trkpt><trkpt lat="42.077811" lon="13.4126176"><ele>975.2857142857143</ele><time>2026-04-12T09:47:19.102Z</time></trkpt><trkpt lat="42.0778139" lon="13.4127098"><ele>973.8571428571429</ele><time>2026-04-12T09:47:26.146Z</time></trkpt><trkpt lat="42.0778208" lon="13.412799"><ele>972.4285714285714</ele><time>2026-04-12T09:47:34.094Z</time></trkpt><trkpt lat="42.0778271" lon="13.4128894"><ele>971.0</ele><time>2026-04-12T09:47:41.136Z</time></trkpt><trkpt lat="42.077838" lon="13.4129867"><ele>969.7142857142858</ele><time>2026-04-12T09:47:56.126Z</time></trkpt><trkpt lat="42.0778231" lon="13.4130781"><ele>968.4285714285716</ele><time>2026-04-12T09:48:02.094Z</time></trkpt><trkpt lat="42.077782" lon="13.4131634"><ele>967.1428571428571</ele><time>2026-04-12T09:48:30.132Z</time></trkpt><trkpt lat="42.0777444" lon="13.4132342"><ele>965.8571428571429</ele><time>2026-04-12T09:48:35.092Z</time></trkpt><trkpt lat="42.0776984" lon="13.4133056"><ele>964.5714285714286</ele><time>2026-04-12T09:48:41.098Z</time></trkpt><trkpt lat="42.0776739" lon="13.4133877"><ele>963.2857142857142</ele><time>2026-04-12T09:48:47.135Z</time></trkpt><trkpt lat="42.0776549" lon="13.4134761"><ele>961.9999999999999</ele><time>2026-04-12T09:48:56.091Z</time></trkpt><trkpt lat="42.0775944" lon="13.4135179"><ele>961.9999999999999</ele><time>2026-04-12T09:49:02.125Z</time></trkpt><trkpt lat="42.077567" lon="13.4136048"><ele>962.0</ele><time>2026-04-12T09:49:10.069Z</time></trkpt><trkpt lat="42.0776363" lon="13.413643"><ele>961.9999999999999</ele><time>2026-04-12T09:49:16.11Z</time></trkpt><trkpt lat="42.0777058" lon="13.4136338"><ele>961.9999999999999</ele><time>2026-04-12T09:49:21.09Z</time></trkpt><trkpt lat="42.0777657" lon="13.4136042"><ele>962.0</ele><time>2026-04-12T09:49:26.09Z</time></trkpt><trkpt lat="42.0778375" lon="13.4136148"><ele>961.9999999999999</ele><time>2026-04-12T09:49:32.106Z</time></trkpt><trkpt lat="42.0777646" lon="13.4135909"><ele>961.9999999999999</ele><time>2026-04-12T09:49:50.116Z</time></trkpt><trkpt lat="42.0777021" lon="13.4136434"><ele>961.9999999999999</ele><time>2026-04-12T09:49:55.163Z</time></trkpt><trkpt lat="42.0776301" lon="13.4136391"><ele>962.0</ele><time>2026-04-12T09:50:02.09Z</time></trkpt><trkpt lat="42.0775671" lon="13.4136038"><ele>961.9999999999999</ele><time>2026-04-12T09:50:11.091Z</time></trkpt><trkpt lat="42.0775861" lon="13.4135151"><ele>961.9999999999999</ele><time>2026-04-12T09:50:19.093Z</time></trkpt><trkpt lat="42.0776246" lon="13.4134327"><ele>962.0</ele><time>2026-04-12T09:50:25.164Z</time></trkpt><trkpt lat="42.0776779" lon="13.4133749"><ele>961.9999999999999</ele><time>2026-04-12T09:50:34.089Z</time></trkpt><trkpt lat="42.0777229" lon="13.4132959"><ele>961.9999999999999</ele><time>2026-04-12T09:50:42.133Z</time></trkpt><trkpt lat="42.0777794" lon="13.4132437"><ele>961.9999999999999</ele><time>2026-04-12T09:50:48.092Z</time></trkpt><trkpt lat="42.0778249" lon="13.4131703"><ele>962.0</ele><time>2026-04-12T09:50:54.106Z</time></trkpt><trkpt lat="42.0778318" lon="13.4130737"><ele>961.9999999999999</ele><time>2026-04-12T09:51:00.143Z</time></trkpt><trkpt lat="42.077816" lon="13.4129802"><ele>961.9999999999999</ele><time>2026-04-12T09:51:07.091Z</time></trkpt><trkpt lat="42.0778292" lon="13.4128877"><ele>962.0</ele><time>2026-04-12T09:51:15.132Z</time></trkpt><trkpt lat="42.0778341" lon="13.412803"><ele>961.9999999999999</ele><time>2026-04-12T09:51:22.089Z</time></trkpt><trkpt lat="42.077825" lon="13.41271"><ele>961.9999999999999</ele><time>2026-04-12T09:51:30.089Z</time></trkpt><trkpt lat="42.0778342" lon="13.4126192"><ele>963.2857142857142</ele><time>2026-04-12T09:51:37.09Z</time></trkpt><trkpt lat="42.077831" lon="13.4125305"><ele>964.5714285714286</ele><time>2026-04-12T09:51:44.109Z</time></trkpt><trkpt lat="42.0778171" lon="13.4124464"><ele>965.8571428571429</ele><time>2026-04-12T09:51:50.089Z</time></trkpt><trkpt lat="42.0778212" lon="13.4123557"><ele>967.1428571428571</ele><time>2026-04-12T09:51:56.951Z</time></trkpt><trkpt lat="42.0778102" lon="13.412266"><ele>968.4285714285716</ele><time>2026-04-12T09:52:03.051Z</time></trkpt><trkpt lat="42.0778153" lon="13.4121744"><ele>969.7142857142858</ele><time>2026-04-12T09:52:12.051Z</time></trkpt><trkpt lat="42.0778097" lon="13.4120799"><ele>971.0</ele><time>2026-04-12T09:52:24.091Z</time></trkpt><trkpt lat="42.077819" lon="13.4119944"><ele>972.4285714285714</ele><time>2026-04-12T09:52:29.09Z</time></trkpt><trkpt lat="42.0778267" lon="13.4119029"><ele>973.8571428571429</ele><time>2026-04-12T09:52:35.03Z</time></trkpt><trkpt lat="42.0778247" lon="13.4118113"><ele>975.2857142857143</ele><time>2026-04-12T09:52:41.093Z</time></trkpt><trkpt lat="42.0778327" lon="13.4117212"><ele>976.7142857142858</ele><time>2026-04-12T09:52:47.09Z</time></trkpt><trkpt lat="42.0778328" lon="13.4116228"><ele>978.1428571428571</ele><time>2026-04-12T09:52:54.074Z</time></trkpt><trkpt lat="42.0778845" lon="13.4115505"><ele>979.5714285714287</ele><time>2026-04-12T09:53:09.12Z</time></trkpt><trkpt lat="42.0779392" lon="13.4114972"><ele>981.0</ele><time>2026-04-12T09:53:15.09Z</time></trkpt><trkpt lat="42.0779877" lon="13.4114239"><ele>981.0</ele><time>2026-04-12T09:53:21.087Z</time></trkpt><trkpt lat="42.0780295" lon="13.4113358"><ele>981.0</ele><time>2026-04-12T09:53:32.169Z</time></trkpt><trkpt lat="42.078066" lon="13.4112659"><ele>981.0</ele><time>2026-04-12T09:53:38.095Z</time></trkpt><trkpt lat="42.0781168" lon="13.4112026"><ele>981.0</ele><time>2026-04-12T09:53:44.089Z</time></trkpt><trkpt lat="42.0781611" lon="13.4111408"><ele>981.0</ele><time>2026-04-12T09:53:50.093Z</time></trkpt><trkpt lat="42.0782073" lon="13.4110693"><ele>981.0</ele><time>2026-04-12T09:53:56.104Z</time></trkpt><trkpt lat="42.0782589" lon="13.411001"><ele>981.0</ele><time>2026-04-12T09:54:02.113Z</time></trkpt><trkpt lat="42.0783161" lon="13.4109521"><ele>980.1428571428571</ele><time>2026-04-12T09:54:08.093Z</time></trkpt><trkpt lat="42.0783684" lon="13.4109027"><ele>979.2857142857142</ele><time>2026-04-12T09:54:14.111Z</time></trkpt><trkpt lat="42.078422" lon="13.4108463"><ele>978.4285714285713</ele><time>2026-04-12T09:54:21.091Z</time></trkpt><trkpt lat="42.0784837" lon="13.4107993"><ele>977.5714285714286</ele><time>2026-04-12T09:54:28.111Z</time></trkpt><trkpt lat="42.0785318" lon="13.4107423"><ele>976.7142857142856</ele><time>2026-04-12T09:54:34.131Z</time></trkpt><trkpt lat="42.0785901" lon="13.4106951"><ele>975.8571428571428</ele><time>2026-04-12T09:54:41.093Z</time></trkpt><trkpt lat="42.0786336" lon="13.4106171"><ele>975.0</ele><time>2026-04-12T09:54:48.155Z</time></trkpt><trkpt lat="42.0786628" lon="13.4105301"><ele>974.7142857142857</ele><time>2026-04-12T09:54:58.092Z</time></trkpt><trkpt lat="42.0786866" lon="13.4104404"><ele>974.4285714285713</ele><time>2026-04-12T09:55:04.113Z</time></trkpt><trkpt lat="42.0786521" lon="13.4103551"><ele>974.1428571428571</ele><time>2026-04-12T09:55:11.048Z</time></trkpt><trkpt lat="42.0786902" lon="13.4102764"><ele>973.8571428571429</ele><time>2026-04-12T09:55:17.09Z</time></trkpt><trkpt lat="42.078744" lon="13.410218"><ele>973.5714285714286</ele><time>2026-04-12T09:55:25.032Z</time></trkpt><trkpt lat="42.0788005" lon="13.4101803"><ele>973.2857142857142</ele><time>2026-04-12T09:55:32.055Z</time></trkpt><trkpt lat="42.0788573" lon="13.4101309"><ele>973.0</ele><time>2026-04-12T09:55:38.117Z</time></trkpt><trkpt lat="42.0789117" lon="13.4100802"><ele>973.0</ele><time>2026-04-12T09:55:44.092Z</time></trkpt><trkpt lat="42.0789634" lon="13.410022"><ele>973.0</ele><time>2026-04-12T09:55:50.092Z</time></trkpt><trkpt lat="42.0790175" lon="13.4099732"><ele>973.0</ele><time>2026-04-12T09:55:56.125Z</time></trkpt><trkpt lat="42.0790734" lon="13.409924"><ele>973.0</ele><time>2026-04-12T09:56:02.166Z</time></trkpt><trkpt lat="42.0791344" lon="13.4098925"><ele>973.0</ele><time>2026-04-12T09:56:08.011Z</time></trkpt><trkpt lat="42.0792043" lon="13.4098685"><ele>973.0</ele><time>2026-04-12T09:56:14.132Z</time></trkpt><trkpt lat="42.0792689" lon="13.4098491"><ele>973.0</ele><time>2026-04-12T09:56:20.091Z</time></trkpt><trkpt lat="42.0793336" lon="13.4098448"><ele>972.5714285714286</ele><time>2026-04-12T09:56:28.092Z</time></trkpt><trkpt lat="42.0793992" lon="13.4098201"><ele>972.1428571428571</ele><time>2026-04-12T09:56:35.073Z</time></trkpt><trkpt lat="42.079465" lon="13.4098003"><ele>971.7142857142858</ele><time>2026-04-12T09:56:41.069Z</time></trkpt><trkpt lat="42.0795241" lon="13.4097456"><ele>971.2857142857143</ele><time>2026-04-12T09:56:49.143Z</time></trkpt><trkpt lat="42.0795752" lon="13.4098019"><ele>970.8571428571429</ele><time>2026-04-12T09:56:57.09Z</time></trkpt><trkpt lat="42.0795789" lon="13.4098918"><ele>970.4285714285716</ele><time>2026-04-12T09:57:59.121Z</time></trkpt><trkpt lat="42.0796239" lon="13.409963"><ele>970.0000000000001</ele><time>2026-04-12T09:58:05.09Z</time></trkpt><trkpt lat="42.0796857" lon="13.4100213"><ele>970.0000000000001</ele><time>2026-04-12T09:58:11.094Z</time></trkpt><trkpt lat="42.079745" lon="13.4100616"><ele>970.0</ele><time>2026-04-12T09:58:17.058Z</time></trkpt><trkpt lat="42.0797931" lon="13.4101185"><ele>970.0000000000001</ele><time>2026-04-12T09:58:24.092Z</time></trkpt><trkpt lat="42.0798513" lon="13.4101758"><ele>970.0000000000001</ele><time>2026-04-12T09:58:31.118Z</time></trkpt><trkpt lat="42.0799053" lon="13.410238"><ele>970.0</ele><time>2026-04-12T09:58:39.092Z</time></trkpt><trkpt lat="42.0799556" lon="13.4102936"><ele>970.0000000000001</ele><time>2026-04-12T09:58:46.11Z</time></trkpt><trkpt lat="42.0800125" lon="13.4103418"><ele>970.0000000000001</ele><time>2026-04-12T09:59:01.102Z</time></trkpt><trkpt lat="42.0800434" lon="13.4104201"><ele>969.2857142857144</ele><time>2026-04-12T09:59:07.138Z</time></trkpt><trkpt lat="42.0800814" lon="13.4104957"><ele>968.5714285714287</ele><time>2026-04-12T09:59:15.092Z</time></trkpt><trkpt lat="42.0801217" lon="13.4105617"><ele>967.8571428571429</ele><time>2026-04-12T09:59:22.129Z</time></trkpt><trkpt lat="42.0800612" lon="13.410592"><ele>967.1428571428572</ele><time>2026-04-12T09:59:58.089Z</time></trkpt><trkpt lat="42.080004" lon="13.4106583"><ele>966.4285714285716</ele><time>2026-04-12T10:00:24.168Z</time></trkpt><trkpt lat="42.0799406" lon="13.4107103"><ele>965.7142857142857</ele><time>2026-04-12T10:00:30.14Z</time></trkpt><trkpt lat="42.0798878" lon="13.4107704"><ele>965.0</ele><time>2026-04-12T10:00:37.048Z</time></trkpt><trkpt lat="42.0798449" lon="13.4108414"><ele>965.0</ele><time>2026-04-12T10:00:45.036Z</time></trkpt><trkpt lat="42.0797909" lon="13.4108864"><ele>965.0</ele><time>2026-04-12T10:00:50.994Z</time></trkpt><trkpt lat="42.0797353" lon="13.4109477"><ele>965.0</ele><time>2026-04-12T10:00:58.16Z</time></trkpt><trkpt lat="42.0796718" lon="13.4110039"><ele>965.0</ele><time>2026-04-12T10:01:12.094Z</time></trkpt><trkpt lat="42.07962" lon="13.4110715"><ele>965.0</ele><time>2026-04-12T10:01:18.129Z</time></trkpt><trkpt lat="42.0795525" lon="13.4110663"><ele>965.0</ele><time>2026-04-12T10:01:26.091Z</time></trkpt><trkpt lat="42.0795092" lon="13.4109883"><ele>965.0</ele><time>2026-04-12T10:01:33.12Z</time></trkpt><trkpt lat="42.0794788" lon="13.4109084"><ele>965.0</ele><time>2026-04-12T10:01:40.089Z</time></trkpt><trkpt lat="42.0794266" lon="13.4108536"><ele>965.0</ele><time>2026-04-12T10:01:48.111Z</time></trkpt><trkpt lat="42.079433" lon="13.4107599"><ele>965.0</ele><time>2026-04-12T10:02:00.09Z</time></trkpt><trkpt lat="42.0793726" lon="13.410726"><ele>965.0</ele><time>2026-04-12T10:02:50.091Z</time></trkpt><trkpt lat="42.0793526" lon="13.4106373"><ele>965.0</ele><time>2026-04-12T10:02:58.131Z</time></trkpt><trkpt lat="42.0793764" lon="13.4107258"><ele>965.0</ele><time>2026-04-12T10:03:27.031Z</time></trkpt><trkpt lat="42.0794185" lon="13.4108053"><ele>965.0</ele><time>2026-04-12T10:03:36.09Z</time></trkpt><trkpt lat="42.0794662" lon="13.4108732"><ele>965.0</ele><time>2026-04-12T10:03:45.113Z</time></trkpt><trkpt lat="42.0795068" lon="13.4109485"><ele>965.0</ele><time>2026-04-12T10:03:52.173Z</time></trkpt><trkpt lat="42.0795427" lon="13.4110328"><ele>965.0</ele><time>2026-04-12T10:03:59.098Z</time></trkpt><trkpt lat="42.0795716" lon="13.411109"><ele>965.0</ele><time>2026-04-12T10:04:11.089Z</time></trkpt><trkpt lat="42.0795123" lon="13.4111557"><ele>965.0</ele><time>2026-04-12T10:04:17.144Z</time></trkpt><trkpt lat="42.0794454" lon="13.4111107"><ele>965.0</ele><time>2026-04-12T10:04:38.168Z</time></trkpt><trkpt lat="42.0794029" lon="13.4110386"><ele>965.0</ele><time>2026-04-12T10:04:44.09Z</time></trkpt><trkpt lat="42.0793531" lon="13.4109732"><ele>965.0</ele><time>2026-04-12T10:04:58.093Z</time></trkpt><trkpt lat="42.0793906" lon="13.410899"><ele>965.0</ele><time>2026-04-12T10:05:08.112Z</time></trkpt><trkpt lat="42.0793914" lon="13.4109869"><ele>965.0</ele><time>2026-04-12T10:06:48.091Z</time></trkpt><trkpt lat="42.0793467" lon="13.4109218"><ele>965.0</ele><time>2026-04-12T10:07:12.095Z</time></trkpt><trkpt lat="42.079394" lon="13.410992"><ele>965.0</ele><time>2026-04-12T10:07:30.14Z</time></trkpt><trkpt lat="42.0793481" lon="13.4109169"><ele>965.0</ele><time>2026-04-12T10:09:07.09Z</time></trkpt><trkpt lat="42.0792871" lon="13.4109481"><ele>965.0</ele><time>2026-04-12T10:09:12.091Z</time></trkpt><trkpt lat="42.0792311" lon="13.4110116"><ele>965.0</ele><time>2026-04-12T10:09:18.073Z</time></trkpt><trkpt lat="42.0791951" lon="13.4110818"><ele>965.0</ele><time>2026-04-12T10:09:26.106Z</time></trkpt><trkpt lat="42.0791586" lon="13.4111529"><ele>965.0</ele><time>2026-04-12T10:09:36.054Z</time></trkpt><trkpt lat="42.0791977" lon="13.4110827"><ele>965.0</ele><time>2026-04-12T10:09:53.067Z</time></trkpt><trkpt lat="42.0792544" lon="13.4110433"><ele>965.0</ele><time>2026-04-12T10:10:01.122Z</time></trkpt><trkpt lat="42.0792992" lon="13.4109798"><ele>965.0</ele><time>2026-04-12T10:10:39.092Z</time></trkpt><trkpt lat="42.0793568" lon="13.4109332"><ele>965.0</ele><time>2026-04-12T10:10:47.105Z</time></trkpt><trkpt lat="42.0792909" lon="13.4109529"><ele>965.0</ele><time>2026-04-12T10:11:32.014Z</time></trkpt><trkpt lat="42.0793544" lon="13.4109702"><ele>965.0</ele><time>2026-04-12T10:11:55.121Z</time></trkpt><trkpt lat="42.0793896" lon="13.4110458"><ele>965.0</ele><time>2026-04-12T10:12:02.091Z</time></trkpt><trkpt lat="42.079428" lon="13.4111154"><ele>965.0</ele><time>2026-04-12T10:12:15.144Z</time></trkpt><trkpt lat="42.0794849" lon="13.4111559"><ele>965.0</ele><time>2026-04-12T10:12:23.094Z</time></trkpt><trkpt lat="42.0795248" lon="13.4112235"><ele>965.0</ele><time>2026-04-12T10:12:37.097Z</time></trkpt><trkpt lat="42.0795238" lon="13.4113136"><ele>965.0</ele><time>2026-04-12T10:12:49.091Z</time></trkpt><trkpt lat="42.0795645" lon="13.4113909"><ele>963.4285714285713</ele><time>2026-04-12T10:13:04.091Z</time></trkpt><trkpt lat="42.0796005" lon="13.4114612"><ele>961.8571428571429</ele><time>2026-04-12T10:13:10.089Z</time></trkpt><trkpt lat="42.0796727" lon="13.4114908"><ele>960.2857142857142</ele><time>2026-04-12T10:13:29.099Z</time></trkpt><trkpt lat="42.0797325" lon="13.4115175"><ele>958.7142857142857</ele><time>2026-04-12T10:13:34.09Z</time></trkpt><trkpt lat="42.0798054" lon="13.4115531"><ele>957.1428571428571</ele><time>2026-04-12T10:13:45.162Z</time></trkpt><trkpt lat="42.0798173" lon="13.4116392"><ele>955.5714285714286</ele><time>2026-04-12T10:15:04.088Z</time></trkpt><trkpt lat="42.0798652" lon="13.4116945"><ele>954.0</ele><time>2026-04-12T10:15:10.089Z</time></trkpt><trkpt lat="42.0798011" lon="13.4117467"><ele>954.0</ele><time>2026-04-12T10:15:38.134Z</time></trkpt><trkpt lat="42.0797571" lon="13.4118083"><ele>953.9999999999999</ele><time>2026-04-12T10:15:44.092Z</time></trkpt><trkpt lat="42.0797014" lon="13.4118688"><ele>954.0</ele><time>2026-04-12T10:15:54.028Z</time></trkpt><trkpt lat="42.0796409" lon="13.4119133"><ele>954.0</ele><time>2026-04-12T10:15:59.091Z</time></trkpt><trkpt lat="42.0797032" lon="13.4119364"><ele>953.9999999999999</ele><time>2026-04-12T10:16:24.074Z</time></trkpt><trkpt lat="42.0797682" lon="13.411956"><ele>954.0</ele><time>2026-04-12T10:16:43.137Z</time></trkpt><trkpt lat="42.0797887" lon="13.4118726"><ele>954.0</ele><time>2026-04-12T10:16:48.09Z</time></trkpt><trkpt lat="42.0798418" lon="13.4118173"><ele>954.0</ele><time>2026-04-12T10:16:55.076Z</time></trkpt><trkpt lat="42.0798941" lon="13.4117653"><ele>953.9999999999999</ele><time>2026-04-12T10:17:51.088Z</time></trkpt><trkpt lat="42.0799463" lon="13.4117162"><ele>954.0</ele><time>2026-04-12T10:17:57.086Z</time></trkpt><trkpt lat="42.0799988" lon="13.4116596"><ele>954.0</ele><time>2026-04-12T10:18:07.087Z</time></trkpt><trkpt lat="42.0800589" lon="13.4116064"><ele>953.9999999999999</ele><time>2026-04-12T10:18:15.117Z</time></trkpt><trkpt lat="42.0800974" lon="13.4115331"><ele>954.0</ele><time>2026-04-12T10:18:29.105Z</time></trkpt><trkpt lat="42.0801556" lon="13.411483"><ele>954.0</ele><time>2026-04-12T10:18:36.012Z</time></trkpt><trkpt lat="42.0802141" lon="13.41143"><ele>954.5714285714286</ele><time>2026-04-12T10:18:44.098Z</time></trkpt><trkpt lat="42.0802711" lon="13.4113769"><ele>955.1428571428571</ele><time>2026-04-12T10:19:05.164Z</time></trkpt><trkpt lat="42.0802472" lon="13.4112926"><ele>955.7142857142857</ele><time>2026-04-12T10:19:16.096Z</time></trkpt><trkpt lat="42.0801867" lon="13.4112541"><ele>956.2857142857142</ele><time>2026-04-12T10:19:43.09Z</time></trkpt><trkpt lat="42.0801434" lon="13.4111922"><ele>956.8571428571429</ele><time>2026-04-12T10:19:49.1Z</time></trkpt><trkpt lat="42.0801135" lon="13.4111084"><ele>957.4285714285713</ele><time>2026-04-12T10:19:56.087Z</time></trkpt><trkpt lat="42.0801558" lon="13.4110421"><ele>958.0</ele><time>2026-04-12T10:20:03.033Z</time></trkpt><trkpt lat="42.0800997" lon="13.411003"><ele>958.0</ele><time>2026-04-12T10:20:58.169Z</time></trkpt><trkpt lat="42.0800766" lon="13.410911"><ele>958.0</ele><time>2026-04-12T10:23:26.09Z</time></trkpt><trkpt lat="42.0800268" lon="13.4108455"><ele>958.0</ele><time>2026-04-12T10:23:32.257Z</time></trkpt><trkpt lat="42.0799675" lon="13.4108055"><ele>958.0</ele><time>2026-04-12T10:23:40.989Z</time></trkpt><trkpt lat="42.0799679" lon="13.4107162"><ele>958.0</ele><time>2026-04-12T10:23:45.196Z</time></trkpt><trkpt lat="42.0800219" lon="13.4106506"><ele>958.0</ele><time>2026-04-12T10:23:54.165Z</time></trkpt><trkpt lat="42.080077" lon="13.4105977"><ele>958.0</ele><time>2026-04-12T10:24:01.108Z</time></trkpt><trkpt lat="42.0801126" lon="13.4105271"><ele>958.0</ele><time>2026-04-12T10:24:26.087Z</time></trkpt><trkpt lat="42.080176" lon="13.4105539"><ele>958.0</ele><time>2026-04-12T10:24:55.089Z</time></trkpt><trkpt lat="42.0802405" lon="13.4105431"><ele>958.0</ele><time>2026-04-12T10:25:01.089Z</time></trkpt><trkpt lat="42.0801728" lon="13.4105494"><ele>958.0</ele><time>2026-04-12T10:25:27.086Z</time></trkpt><trkpt lat="42.080106" lon="13.4105024"><ele>958.0</ele><time>2026-04-12T10:25:33.097Z</time></trkpt><trkpt lat="42.0800956" lon="13.410418"><ele>958.0</ele><time>2026-04-12T10:25:41.131Z</time></trkpt><trkpt lat="42.0800349" lon="13.4103679"><ele>958.0</ele><time>2026-04-12T10:27:13.118Z</time></trkpt><trkpt lat="42.0800038" lon="13.4102919"><ele>959.0</ele><time>2026-04-12T10:27:20.086Z</time></trkpt><trkpt lat="42.0799478" lon="13.4102443"><ele>960.0</ele><time>2026-04-12T10:27:28.011Z</time></trkpt><trkpt lat="42.0798826" lon="13.4102067"><ele>961.0</ele><time>2026-04-12T10:27:36.036Z</time></trkpt><trkpt lat="42.0798404" lon="13.4101386"><ele>962.0</ele><time>2026-04-12T10:27:57.091Z</time></trkpt><trkpt lat="42.0797901" lon="13.4100781"><ele>963.0</ele><time>2026-04-12T10:28:16.109Z</time></trkpt><trkpt lat="42.0797317" lon="13.4100296"><ele>964.0</ele><time>2026-04-12T10:28:22.086Z</time></trkpt><trkpt lat="42.0796942" lon="13.4099598"><ele>965.0</ele><time>2026-04-12T10:28:29.089Z</time></trkpt><trkpt lat="42.0796341" lon="13.409911"><ele>965.4285714285713</ele><time>2026-04-12T10:28:58.162Z</time></trkpt><trkpt lat="42.0795748" lon="13.4098656"><ele>965.8571428571429</ele><time>2026-04-12T10:29:04.106Z</time></trkpt><trkpt lat="42.0795322" lon="13.4097865"><ele>966.2857142857142</ele><time>2026-04-12T10:29:11.093Z</time></trkpt><trkpt lat="42.0794977" lon="13.4097035"><ele>966.7142857142857</ele><time>2026-04-12T10:29:20.168Z</time></trkpt><trkpt lat="42.0794384" lon="13.4096562"><ele>967.1428571428571</ele><time>2026-04-12T10:29:27.087Z</time></trkpt><trkpt lat="42.0793826" lon="13.4096122"><ele>967.5714285714286</ele><time>2026-04-12T10:29:34.036Z</time></trkpt><trkpt lat="42.0793265" lon="13.4095563"><ele>968.0</ele><time>2026-04-12T10:29:46.088Z</time></trkpt><trkpt lat="42.0792575" lon="13.4095259"><ele>968.0</ele><time>2026-04-12T10:29:52.102Z</time></trkpt><trkpt lat="42.0791945" lon="13.4094993"><ele>968.0</ele><time>2026-04-12T10:29:58.087Z</time></trkpt><trkpt lat="42.0791258" lon="13.4095175"><ele>968.0</ele><time>2026-04-12T10:30:05.085Z</time></trkpt><trkpt lat="42.079064" lon="13.4095426"><ele>962.0</ele><time>2026-04-12T10:30:11.086Z</time></trkpt></trkseg><trkseg><trkpt lat="42.0792276" lon="13.4096034"><ele>968.0</ele><time>2026-04-12T10:46:26.085Z</time></trkpt><trkpt lat="42.0792572" lon="13.4095245"><ele>967.9999999999999</ele><time>2026-04-12T10:46:30.086Z</time></trkpt><trkpt lat="42.0792968" lon="13.4094527"><ele>968.0</ele><time>2026-04-12T10:46:35.087Z</time></trkpt><trkpt lat="42.0793561" lon="13.4093986"><ele>968.0</ele><time>2026-04-12T10:46:41.085Z</time></trkpt><trkpt lat="42.0794109" lon="13.4093506"><ele>967.9999999999999</ele><time>2026-04-12T10:46:47.086Z</time></trkpt><trkpt lat="42.0794768" lon="13.4093023"><ele>968.0</ele><time>2026-04-12T10:46:54.105Z</time></trkpt><trkpt lat="42.0795205" lon="13.4092174"><ele>968.0</ele><time>2026-04-12T10:47:09.098Z</time></trkpt><trkpt lat="42.0795869" lon="13.4091947"><ele>968.0</ele><time>2026-04-12T10:47:40.076Z</time></trkpt><trkpt lat="42.0796478" lon="13.4091708"><ele>967.9999999999999</ele><time>2026-04-12T10:47:45.121Z</time></trkpt><trkpt lat="42.0797043" lon="13.4091223"><ele>968.0</ele><time>2026-04-12T10:47:51.087Z</time></trkpt><trkpt lat="42.079768" lon="13.4090854"><ele>968.0</ele><time>2026-04-12T10:47:57.096Z</time></trkpt><trkpt lat="42.0798277" lon="13.4090336"><ele>967.9999999999999</ele><time>2026-04-12T10:48:03.085Z</time></trkpt><trkpt lat="42.0798777" lon="13.4089742"><ele>968.0</ele><time>2026-04-12T10:48:11.085Z</time></trkpt><trkpt lat="42.0799282" lon="13.4089111"><ele>968.0</ele><time>2026-04-12T10:48:17.085Z</time></trkpt><trkpt lat="42.0799735" lon="13.4088423"><ele>968.2857142857142</ele><time>2026-04-12T10:48:23.053Z</time></trkpt><trkpt lat="42.0800144" lon="13.4087751"><ele>968.5714285714284</ele><time>2026-04-12T10:48:29.095Z</time></trkpt><trkpt lat="42.0800695" lon="13.4087318"><ele>968.8571428571429</ele><time>2026-04-12T10:48:34.086Z</time></trkpt><trkpt lat="42.0801346" lon="13.4086768"><ele>969.1428571428571</ele><time>2026-04-12T10:48:40.098Z</time></trkpt><trkpt lat="42.0801884" lon="13.4086027"><ele>969.4285714285714</ele><time>2026-04-12T10:48:47.106Z</time></trkpt><trkpt lat="42.0802511" lon="13.4085532"><ele>969.7142857142858</ele><time>2026-04-12T10:48:54.085Z</time></trkpt><trkpt lat="42.0803112" lon="13.4084938"><ele>970.0000000000001</ele><time>2026-04-12T10:49:03.107Z</time></trkpt><trkpt lat="42.0803515" lon="13.4084167"><ele>970.0000000000001</ele><time>2026-04-12T10:49:12.085Z</time></trkpt><trkpt lat="42.0803996" lon="13.4083548"><ele>970.0</ele><time>2026-04-12T10:49:19.105Z</time></trkpt><trkpt lat="42.0804522" lon="13.4083016"><ele>970.0000000000001</ele><time>2026-04-12T10:49:25.057Z</time></trkpt><trkpt lat="42.0805009" lon="13.4082454"><ele>970.0000000000001</ele><time>2026-04-12T10:49:31.085Z</time></trkpt><trkpt lat="42.0805675" lon="13.4082113"><ele>970.0</ele><time>2026-04-12T10:49:38.084Z</time></trkpt><trkpt lat="42.0806254" lon="13.4081558"><ele>970.0000000000001</ele><time>2026-04-12T10:49:44.993Z</time></trkpt><trkpt lat="42.0806797" lon="13.4080989"><ele>970.0000000000001</ele><time>2026-04-12T10:49:51.104Z</time></trkpt><trkpt lat="42.0807248" lon="13.4080318"><ele>970.1428571428573</ele><time>2026-04-12T10:49:57.149Z</time></trkpt><trkpt lat="42.0807825" lon="13.4079939"><ele>970.2857142857143</ele><time>2026-04-12T10:50:04.086Z</time></trkpt><trkpt lat="42.0808521" lon="13.4079734"><ele>970.4285714285716</ele><time>2026-04-12T10:50:11.085Z</time></trkpt><trkpt lat="42.0809183" lon="13.4079734"><ele>970.5714285714287</ele><time>2026-04-12T10:50:17.085Z</time></trkpt><trkpt lat="42.0809873" lon="13.4079939"><ele>970.7142857142858</ele><time>2026-04-12T10:50:33.073Z</time></trkpt><trkpt lat="42.0810465" lon="13.4080499"><ele>970.8571428571429</ele><time>2026-04-12T10:50:39.082Z</time></trkpt><trkpt lat="42.0810988" lon="13.4081186"><ele>971.0</ele><time>2026-04-12T10:50:45.118Z</time></trkpt><trkpt lat="42.0811505" lon="13.4081869"><ele>971.0</ele><time>2026-04-12T10:50:52.018Z</time></trkpt><trkpt lat="42.0812002" lon="13.408247"><ele>971.0000000000001</ele><time>2026-04-12T10:50:58.086Z</time></trkpt><trkpt lat="42.0812623" lon="13.4082861"><ele>971.0</ele><time>2026-04-12T10:51:04.086Z</time></trkpt><trkpt lat="42.0813155" lon="13.4083541"><ele>971.0</ele><time>2026-04-12T10:51:10.092Z</time></trkpt><trkpt lat="42.0813747" lon="13.4084007"><ele>971.0000000000001</ele><time>2026-04-12T10:51:16.133Z</time></trkpt><trkpt lat="42.0814253" lon="13.4084674"><ele>971.0</ele><time>2026-04-12T10:51:24.037Z</time></trkpt><trkpt lat="42.0814849" lon="13.408515"><ele>971.0</ele><time>2026-04-12T10:51:30.086Z</time></trkpt><trkpt lat="42.0815308" lon="13.4085836"><ele>971.0</ele><time>2026-04-12T10:51:36.092Z</time></trkpt><trkpt lat="42.0815741" lon="13.4086611"><ele>971.0000000000001</ele><time>2026-04-12T10:51:43.101Z</time></trkpt><trkpt lat="42.0816161" lon="13.4087267"><ele>971.0</ele><time>2026-04-12T10:51:49.085Z</time></trkpt><trkpt lat="42.081662" lon="13.408785"><ele>971.0</ele><time>2026-04-12T10:51:55.01Z</time></trkpt><trkpt lat="42.0816926" lon="13.4088708"><ele>971.0000000000001</ele><time>2026-04-12T10:52:01.113Z</time></trkpt><trkpt lat="42.0817224" lon="13.4089471"><ele>971.0</ele><time>2026-04-12T10:52:07.085Z</time></trkpt><trkpt lat="42.0817594" lon="13.4090255"><ele>971.0</ele><time>2026-04-12T10:52:14.049Z</time></trkpt><trkpt lat="42.0817923" lon="13.4091107"><ele>970.2857142857143</ele><time>2026-04-12T10:52:21.085Z</time></trkpt><trkpt lat="42.0818338" lon="13.4091872"><ele>969.5714285714287</ele><time>2026-04-12T10:52:27.03Z</time></trkpt><trkpt lat="42.0818636" lon="13.4092654"><ele>968.8571428571429</ele><time>2026-04-12T10:52:33.113Z</time></trkpt><trkpt lat="42.0819122" lon="13.4093304"><ele>968.1428571428571</ele><time>2026-04-12T10:52:40.072Z</time></trkpt><trkpt lat="42.0819474" lon="13.4094071"><ele>967.4285714285714</ele><time>2026-04-12T10:52:46.093Z</time></trkpt><trkpt lat="42.0819827" lon="13.4094883"><ele>966.7142857142858</ele><time>2026-04-12T10:52:52.085Z</time></trkpt><trkpt lat="42.0820218" lon="13.4095785"><ele>966.0</ele><time>2026-04-12T10:53:02.058Z</time></trkpt><trkpt lat="42.0820519" lon="13.4096639"><ele>966.0</ele><time>2026-04-12T10:53:09.085Z</time></trkpt><trkpt lat="42.0820954" lon="13.4097419"><ele>966.0</ele><time>2026-04-12T10:53:24.085Z</time></trkpt><trkpt lat="42.0821389" lon="13.4098135"><ele>966.0</ele><time>2026-04-12T10:53:29.085Z</time></trkpt><trkpt lat="42.0821902" lon="13.4098858"><ele>966.0</ele><time>2026-04-12T10:53:37.042Z</time></trkpt><trkpt lat="42.0821888" lon="13.409971"><ele>966.0</ele><time>2026-04-12T10:53:44.085Z</time></trkpt><trkpt lat="42.0822385" lon="13.4100461"><ele>966.0</ele><time>2026-04-12T10:54:04.016Z</time></trkpt><trkpt lat="42.0822793" lon="13.4101165"><ele>966.0</ele><time>2026-04-12T10:54:11.078Z</time></trkpt><trkpt lat="42.0823199" lon="13.4101954"><ele>966.0</ele><time>2026-04-12T10:54:20.074Z</time></trkpt><trkpt lat="42.0823466" lon="13.4102761"><ele>966.0</ele><time>2026-04-12T10:54:26.116Z</time></trkpt><trkpt lat="42.0823529" lon="13.4103715"><ele>966.0</ele><time>2026-04-12T10:54:35.085Z</time></trkpt><trkpt lat="42.0823869" lon="13.4104502"><ele>966.0</ele><time>2026-04-12T10:54:42.086Z</time></trkpt><trkpt lat="42.0824306" lon="13.4105142"><ele>966.0</ele><time>2026-04-12T10:54:49.085Z</time></trkpt><trkpt lat="42.0824726" lon="13.4105857"><ele>966.0</ele><time>2026-04-12T10:54:57.109Z</time></trkpt><trkpt lat="42.0824917" lon="13.4106847"><ele>966.0</ele><time>2026-04-12T10:55:05.072Z</time></trkpt><trkpt lat="42.0825072" lon="13.4107835"><ele>967.8571428571429</ele><time>2026-04-12T10:55:13.106Z</time></trkpt><trkpt lat="42.0825456" lon="13.4108586"><ele>969.7142857142858</ele><time>2026-04-12T10:55:20.086Z</time></trkpt><trkpt lat="42.0826033" lon="13.4108953"><ele>971.5714285714286</ele><time>2026-04-12T10:55:27.038Z</time></trkpt><trkpt lat="42.0826634" lon="13.4109393"><ele>973.4285714285714</ele><time>2026-04-12T10:56:18.108Z</time></trkpt><trkpt lat="42.0827221" lon="13.4109837"><ele>975.2857142857143</ele><time>2026-04-12T10:56:25.086Z</time></trkpt><trkpt lat="42.0827852" lon="13.4110288"><ele>977.1428571428571</ele><time>2026-04-12T10:56:33.099Z</time></trkpt><trkpt lat="42.0828346" lon="13.4110956"><ele>979.0</ele><time>2026-04-12T10:56:41.163Z</time></trkpt><trkpt lat="42.0828515" lon="13.4111823"><ele>979.0</ele><time>2026-04-12T10:56:49.097Z</time></trkpt><trkpt lat="42.0829021" lon="13.4112405"><ele>979.0</ele><time>2026-04-12T10:57:18.085Z</time></trkpt><trkpt lat="42.0829717" lon="13.4112295"><ele>979.0</ele><time>2026-04-12T10:57:25.085Z</time></trkpt><trkpt lat="42.0830365" lon="13.4112434"><ele>979.0</ele><time>2026-04-12T10:57:34.085Z</time></trkpt><trkpt lat="42.0831002" lon="13.4112707"><ele>979.0</ele><time>2026-04-12T10:57:43.129Z</time></trkpt><trkpt lat="42.0831768" lon="13.4112914"><ele>979.0</ele><time>2026-04-12T10:58:42.085Z</time></trkpt><trkpt lat="42.0832128" lon="13.4113728"><ele>979.0</ele><time>2026-04-12T10:58:51.082Z</time></trkpt><trkpt lat="42.0832514" lon="13.4114445"><ele>981.8571428571429</ele><time>2026-04-12T10:58:58.02Z</time></trkpt><trkpt lat="42.0833096" lon="13.4114846"><ele>984.7142857142858</ele><time>2026-04-12T10:59:07.086Z</time></trkpt><trkpt lat="42.0833715" lon="13.411515"><ele>987.5714285714287</ele><time>2026-04-12T10:59:32.097Z</time></trkpt><trkpt lat="42.0834265" lon="13.4115681"><ele>990.4285714285714</ele><time>2026-04-12T10:59:39.085Z</time></trkpt><trkpt lat="42.0834911" lon="13.4115935"><ele>993.2857142857144</ele><time>2026-04-12T10:59:44.992Z</time></trkpt><trkpt lat="42.0835592" lon="13.4116048"><ele>996.1428571428572</ele><time>2026-04-12T10:59:52.085Z</time></trkpt><trkpt lat="42.083623" lon="13.4116168"><ele>999.0</ele><time>2026-04-12T11:00:01.085Z</time></trkpt><trkpt lat="42.0836903" lon="13.4116172"><ele>999.0</ele><time>2026-04-12T11:00:08.118Z</time></trkpt><trkpt lat="42.0837544" lon="13.4116084"><ele>999.0000000000001</ele><time>2026-04-12T11:00:15.088Z</time></trkpt><trkpt lat="42.0838271" lon="13.411612"><ele>999.0</ele><time>2026-04-12T11:00:22.103Z</time></trkpt><trkpt lat="42.083893" lon="13.4116052"><ele>999.0</ele><time>2026-04-12T11:00:49.086Z</time></trkpt><trkpt lat="42.0839535" lon="13.4115761"><ele>999.0000000000001</ele><time>2026-04-12T11:00:57.085Z</time></trkpt><trkpt lat="42.0840202" lon="13.4115402"><ele>999.0</ele><time>2026-04-12T11:01:07.086Z</time></trkpt><trkpt lat="42.0840773" lon="13.4115765"><ele>999.0</ele><time>2026-04-12T11:01:19.085Z</time></trkpt><trkpt lat="42.0841447" lon="13.4115862"><ele>999.8571428571429</ele><time>2026-04-12T11:01:29.085Z</time></trkpt><trkpt lat="42.0842085" lon="13.4115959"><ele>1000.7142857142858</ele><time>2026-04-12T11:01:35.085Z</time></trkpt><trkpt lat="42.0842554" lon="13.4116587"><ele>1001.5714285714287</ele><time>2026-04-12T11:01:42.1Z</time></trkpt><trkpt lat="42.0843173" lon="13.4117093"><ele>1002.4285714285716</ele><time>2026-04-12T11:02:15.072Z</time></trkpt><trkpt lat="42.0843812" lon="13.4117368"><ele>1003.2857142857143</ele><time>2026-04-12T11:02:40.086Z</time></trkpt><trkpt lat="42.0843792" lon="13.411823"><ele>1004.1428571428573</ele><time>2026-04-12T11:02:51.085Z</time></trkpt><trkpt lat="42.0843049" lon="13.4118599"><ele>1005.0000000000001</ele><time>2026-04-12T11:03:44.085Z</time></trkpt><trkpt lat="42.0842346" lon="13.4118698"><ele>1005.0</ele><time>2026-04-12T11:03:51.086Z</time></trkpt><trkpt lat="42.0841506" lon="13.4118997"><ele>1005.0</ele><time>2026-04-12T11:04:18.994Z</time></trkpt><trkpt lat="42.0840864" lon="13.4118903"><ele>1005.0</ele><time>2026-04-12T11:04:24.09Z</time></trkpt><trkpt lat="42.0839905" lon="13.4119417"><ele>1005.0</ele><time>2026-04-12T11:05:51.092Z</time></trkpt><trkpt lat="42.0839221" lon="13.4119684"><ele>1005.0</ele><time>2026-04-12T11:05:58.052Z</time></trkpt><trkpt lat="42.0838716" lon="13.4120322"><ele>1005.0</ele><time>2026-04-12T11:06:04.997Z</time></trkpt><trkpt lat="42.083929" lon="13.4120877"><ele>1005.0000000000001</ele><time>2026-04-12T11:06:33.054Z</time></trkpt><trkpt lat="42.0839946" lon="13.4120895"><ele>1005.0</ele><time>2026-04-12T11:06:38.089Z</time></trkpt><trkpt lat="42.0840607" lon="13.4120668"><ele>1005.0000000000001</ele><time>2026-04-12T11:06:45.03Z</time></trkpt><trkpt lat="42.0841251" lon="13.4120792"><ele>1005.0000000000001</ele><time>2026-04-12T11:06:52.034Z</time></trkpt><trkpt lat="42.0841087" lon="13.4121658"><ele>1005.0</ele><time>2026-04-12T11:06:58.093Z</time></trkpt><trkpt lat="42.0841651" lon="13.4121114"><ele>1005.0000000000001</ele><time>2026-04-12T11:07:44.952Z</time></trkpt><trkpt lat="42.0842287" lon="13.4120683"><ele>1005.0000000000001</ele><time>2026-04-12T11:09:05.1Z</time></trkpt><trkpt lat="42.08429" lon="13.4120914"><ele>1005.0000000000001</ele><time>2026-04-12T11:09:21.555Z</time></trkpt><trkpt lat="42.0843455" lon="13.4121323"><ele>1005.0</ele><time>2026-04-12T11:09:27.086Z</time></trkpt><trkpt lat="42.0844085" lon="13.4121597"><ele>1005.0000000000001</ele><time>2026-04-12T11:09:33.073Z</time></trkpt><trkpt lat="42.0844809" lon="13.4121749"><ele>1005.0000000000001</ele><time>2026-04-12T11:09:40.133Z</time></trkpt><trkpt lat="42.0845028" lon="13.4122635"><ele>1005.0</ele><time>2026-04-12T11:09:47.998Z</time></trkpt><trkpt lat="42.084495" lon="13.4123567"><ele>1005.0000000000001</ele><time>2026-04-12T11:09:56.086Z</time></trkpt><trkpt lat="42.0844677" lon="13.412439"><ele>1005.0000000000001</ele><time>2026-04-12T11:10:04.086Z</time></trkpt><trkpt lat="42.0844578" lon="13.4123377"><ele>1006.1428571428573</ele><time>2026-04-12T11:10:38.642Z</time></trkpt><trkpt lat="42.0844807" lon="13.4122578"><ele>1007.2857142857143</ele><time>2026-04-12T11:10:51.095Z</time></trkpt><trkpt lat="42.0844714" lon="13.4123483"><ele>1008.4285714285716</ele><time>2026-04-12T11:11:17.085Z</time></trkpt><trkpt lat="42.084469" lon="13.4124389"><ele>1009.5714285714287</ele><time>2026-04-12T11:11:23.616Z</time></trkpt><trkpt lat="42.0844621" lon="13.412328"><ele>1010.7142857142858</ele><time>2026-04-12T11:13:20.086Z</time></trkpt><trkpt lat="42.0844745" lon="13.4122441"><ele>1011.8571428571429</ele><time>2026-04-12T11:13:32.257Z</time></trkpt><trkpt lat="42.084457" lon="13.4123302"><ele>1013.0</ele><time>2026-04-12T11:13:42.086Z</time></trkpt><trkpt lat="42.0844462" lon="13.412414"><ele>1013.0</ele><time>2026-04-12T11:13:48.085Z</time></trkpt><trkpt lat="42.0843834" lon="13.4123881"><ele>1013.0000000000001</ele><time>2026-04-12T11:13:57.085Z</time></trkpt><trkpt lat="42.0843161" lon="13.4123675"><ele>1013.0</ele><time>2026-04-12T11:14:07.085Z</time></trkpt><trkpt lat="42.0843802" lon="13.4123321"><ele>1013.0</ele><time>2026-04-12T11:14:27.101Z</time></trkpt><trkpt lat="42.0844452" lon="13.4123671"><ele>1013.0000000000001</ele><time>2026-04-12T11:14:35.085Z</time></trkpt><trkpt lat="42.0843886" lon="13.4124079"><ele>1013.0</ele><time>2026-04-12T11:15:38.15Z</time></trkpt><trkpt lat="42.0844229" lon="13.4124797"><ele>1013.0</ele><time>2026-04-12T11:15:44.06Z</time></trkpt><trkpt lat="42.0844592" lon="13.412407"><ele>1013.0</ele><time>2026-04-12T11:15:55.098Z</time></trkpt><trkpt lat="42.0844742" lon="13.4123199"><ele>1013.0000000000001</ele><time>2026-04-12T11:16:08.085Z</time></trkpt><trkpt lat="42.0844879" lon="13.412235"><ele>1013.0</ele><time>2026-04-12T11:16:16.13Z</time></trkpt><trkpt lat="42.0844663" lon="13.4121315"><ele>1013.0</ele><time>2026-04-12T11:16:35.157Z</time></trkpt><trkpt lat="42.0844648" lon="13.4120436"><ele>1013.0000000000001</ele><time>2026-04-12T11:16:41.15Z</time></trkpt><trkpt lat="42.0844442" lon="13.412142"><ele>1013.0</ele><time>2026-04-12T11:17:02.085Z</time></trkpt><trkpt lat="42.0843825" lon="13.4121165"><ele>1013.0</ele><time>2026-04-12T11:17:22.086Z</time></trkpt><trkpt lat="42.0843141" lon="13.4121111"><ele>1011.8571428571429</ele><time>2026-04-12T11:17:29.086Z</time></trkpt><trkpt lat="42.0842495" lon="13.4121057"><ele>1010.7142857142858</ele><time>2026-04-12T11:17:35.086Z</time></trkpt><trkpt lat="42.0841806" lon="13.4120898"><ele>1009.5714285714287</ele><time>2026-04-12T11:17:42.039Z</time></trkpt><trkpt lat="42.084113" lon="13.4120948"><ele>1008.4285714285716</ele><time>2026-04-12T11:17:50.086Z</time></trkpt><trkpt lat="42.08405" lon="13.4120902"><ele>1007.2857142857143</ele><time>2026-04-12T11:17:57.053Z</time></trkpt><trkpt lat="42.0839822" lon="13.4120984"><ele>1006.1428571428573</ele><time>2026-04-12T11:18:05.107Z</time></trkpt><trkpt lat="42.0839216" lon="13.4120753"><ele>1005.0000000000001</ele><time>2026-04-12T11:18:12.085Z</time></trkpt><trkpt lat="42.083876" lon="13.4121358"><ele>1005.0000000000001</ele><time>2026-04-12T11:18:21.106Z</time></trkpt><trkpt lat="42.0838635" lon="13.4122212"><ele>1005.0</ele><time>2026-04-12T11:18:29.086Z</time></trkpt><trkpt lat="42.083826" lon="13.4122993"><ele>1005.0000000000001</ele><time>2026-04-12T11:18:36.1Z</time></trkpt><trkpt lat="42.0837616" lon="13.4122967"><ele>1005.0000000000001</ele><time>2026-04-12T11:19:19.085Z</time></trkpt><trkpt lat="42.0836941" lon="13.4122696"><ele>1005.0</ele><time>2026-04-12T11:19:27.996Z</time></trkpt><trkpt lat="42.0836282" lon="13.4122379"><ele>1005.0000000000001</ele><time>2026-04-12T11:19:35.085Z</time></trkpt><trkpt lat="42.083576" lon="13.4121881"><ele>1005.0000000000001</ele><time>2026-04-12T11:19:42.014Z</time></trkpt><trkpt lat="42.0835073" lon="13.4121522"><ele>1004.1428571428573</ele><time>2026-04-12T11:19:50.085Z</time></trkpt><trkpt lat="42.0835045" lon="13.4120609"><ele>1003.2857142857143</ele><time>2026-04-12T11:19:56.12Z</time></trkpt><trkpt lat="42.0835375" lon="13.4119768"><ele>1002.4285714285716</ele><time>2026-04-12T11:20:03.092Z</time></trkpt><trkpt lat="42.0835822" lon="13.4119072"><ele>1001.5714285714287</ele><time>2026-04-12T11:20:12.093Z</time></trkpt><trkpt lat="42.0835337" lon="13.4119633"><ele>1000.7142857142858</ele><time>2026-04-12T11:21:43.078Z</time></trkpt><trkpt lat="42.0834676" lon="13.4119724"><ele>999.8571428571429</ele><time>2026-04-12T11:21:49.053Z</time></trkpt><trkpt lat="42.0834029" lon="13.4119634"><ele>999.0</ele><time>2026-04-12T11:21:55.085Z</time></trkpt><trkpt lat="42.083342" lon="13.4119883"><ele>999.0</ele><time>2026-04-12T11:22:03.166Z</time></trkpt><trkpt lat="42.083278" lon="13.4119678"><ele>999.0000000000001</ele><time>2026-04-12T11:22:10.019Z</time></trkpt><trkpt lat="42.0832126" lon="13.4119562"><ele>999.0</ele><time>2026-04-12T11:22:17.086Z</time></trkpt><trkpt lat="42.0831442" lon="13.4119578"><ele>999.0</ele><time>2026-04-12T11:22:24.099Z</time></trkpt><trkpt lat="42.0830715" lon="13.4119757"><ele>999.0000000000001</ele><time>2026-04-12T11:22:56.109Z</time></trkpt><trkpt lat="42.0830003" lon="13.4119695"><ele>999.0</ele><time>2026-04-12T11:23:01.078Z</time></trkpt><trkpt lat="42.0829373" lon="13.4119589"><ele>999.0</ele><time>2026-04-12T11:23:07.085Z</time></trkpt><trkpt lat="42.0828824" lon="13.4120126"><ele>998.8571428571429</ele><time>2026-04-12T11:23:30.121Z</time></trkpt><trkpt lat="42.0828511" lon="13.4119306"><ele>998.7142857142858</ele><time>2026-04-12T11:23:43.116Z</time></trkpt><trkpt lat="42.082813" lon="13.4120067"><ele>998.5714285714287</ele><time>2026-04-12T11:24:50.085Z</time></trkpt><trkpt lat="42.082748" lon="13.4120445"><ele>998.4285714285716</ele><time>2026-04-12T11:24:56.097Z</time></trkpt><trkpt lat="42.0826809" lon="13.4120455"><ele>998.2857142857143</ele><time>2026-04-12T11:25:03.085Z</time></trkpt><trkpt lat="42.0826161" lon="13.4120314"><ele>998.1428571428573</ele><time>2026-04-12T11:25:10.097Z</time></trkpt><trkpt lat="42.0825502" lon="13.4120553"><ele>998.0000000000001</ele><time>2026-04-12T11:25:18.085Z</time></trkpt><trkpt lat="42.0826133" lon="13.4120185"><ele>998.0000000000001</ele><time>2026-04-12T11:26:06.086Z</time></trkpt><trkpt lat="42.0826833" lon="13.4120225"><ele>998.0</ele><time>2026-04-12T11:26:13.012Z</time></trkpt><trkpt lat="42.0827484" lon="13.4120104"><ele>998.0000000000001</ele><time>2026-04-12T11:26:25.058Z</time></trkpt><trkpt lat="42.0828047" lon="13.4119583"><ele>998.0000000000001</ele><time>2026-04-12T11:26:32.085Z</time></trkpt><trkpt lat="42.08287" lon="13.4119893"><ele>998.0</ele><time>2026-04-12T11:26:44.086Z</time></trkpt><trkpt lat="42.0828069" lon="13.4120264"><ele>998.0000000000001</ele><time>2026-04-12T11:28:20.085Z</time></trkpt><trkpt lat="42.0827413" lon="13.4120324"><ele>998.0000000000001</ele><time>2026-04-12T11:28:25.085Z</time></trkpt><trkpt lat="42.0826729" lon="13.4120387"><ele>998.0000000000001</ele><time>2026-04-12T11:28:32.051Z</time></trkpt><trkpt lat="42.0826189" lon="13.4119886"><ele>998.0</ele><time>2026-04-12T11:28:54.071Z</time></trkpt><trkpt lat="42.0826731" lon="13.4120514"><ele>998.0000000000001</ele><time>2026-04-12T11:29:13.092Z</time></trkpt><trkpt lat="42.0826226" lon="13.4119936"><ele>998.0000000000001</ele><time>2026-04-12T11:29:24.077Z</time></trkpt><trkpt lat="42.0826914" lon="13.4120046"><ele>998.0</ele><time>2026-04-12T11:36:04.025Z</time></trkpt><trkpt lat="42.0827601" lon="13.4120118"><ele>998.0000000000001</ele><time>2026-04-12T11:36:11.121Z</time></trkpt><trkpt lat="42.082822" lon="13.4120308"><ele>998.0000000000001</ele><time>2026-04-12T11:36:17.086Z</time></trkpt><trkpt lat="42.0828891" lon="13.4120576"><ele>998.0000000000001</ele><time>2026-04-12T11:36:27.085Z</time></trkpt><trkpt lat="42.0829234" lon="13.4121328"><ele>998.0</ele><time>2026-04-12T11:37:15.085Z</time></trkpt><trkpt lat="42.0829052" lon="13.4120493"><ele>998.0000000000001</ele><time>2026-04-12T11:37:32.085Z</time></trkpt><trkpt lat="42.0828684" lon="13.4119734"><ele>998.0000000000001</ele><time>2026-04-12T11:37:39.128Z</time></trkpt><trkpt lat="42.0829007" lon="13.4118919"><ele>998.0</ele><time>2026-04-12T12:44:03.068Z</time></trkpt><trkpt lat="42.0828663" lon="13.4118154"><ele>998.0000000000001</ele><time>2026-04-12T12:44:12.067Z</time></trkpt><trkpt lat="42.0827935" lon="13.4118062"><ele>998.0000000000001</ele><time>2026-04-12T12:44:30.069Z</time></trkpt><trkpt lat="42.0827246" lon="13.4118137"><ele>998.0000000000001</ele><time>2026-04-12T12:45:04.068Z</time></trkpt><trkpt lat="42.0826651" lon="13.4117831"><ele>998.0</ele><time>2026-04-12T12:45:15.069Z</time></trkpt><trkpt lat="42.0825984" lon="13.4117633"><ele>998.0000000000001</ele><time>2026-04-12T12:48:16.07Z</time></trkpt><trkpt lat="42.0825288" lon="13.4117857"><ele>998.0000000000001</ele><time>2026-04-12T12:48:26.065Z</time></trkpt><trkpt lat="42.0824646" lon="13.4118036"><ele>998.0</ele><time>2026-04-12T12:48:33.069Z</time></trkpt><trkpt lat="42.0824021" lon="13.4118388"><ele>998.0000000000001</ele><time>2026-04-12T12:48:41.068Z</time></trkpt><trkpt lat="42.0823336" lon="13.4118658"><ele>998.0000000000001</ele><time>2026-04-12T12:48:51.069Z</time></trkpt><trkpt lat="42.0822618" lon="13.4118781"><ele>995.857142857143</ele><time>2026-04-12T12:48:59.066Z</time></trkpt><trkpt lat="42.0821962" lon="13.4118827"><ele>993.7142857142858</ele><time>2026-04-12T12:49:40.067Z</time></trkpt><trkpt lat="42.0821361" lon="13.4119141"><ele>991.5714285714286</ele><time>2026-04-12T12:49:48.068Z</time></trkpt><trkpt lat="42.0820722" lon="13.4119103"><ele>989.4285714285714</ele><time>2026-04-12T12:49:54.104Z</time></trkpt><trkpt lat="42.0820073" lon="13.4118966"><ele>987.2857142857142</ele><time>2026-04-12T12:50:21.085Z</time></trkpt><trkpt lat="42.0819439" lon="13.411905"><ele>985.142857142857</ele><time>2026-04-12T12:50:29.085Z</time></trkpt><trkpt lat="42.0818796" lon="13.4119161"><ele>982.9999999999999</ele><time>2026-04-12T12:50:52.069Z</time></trkpt><trkpt lat="42.0818181" lon="13.4119577"><ele>982.9999999999999</ele><time>2026-04-12T12:50:59.069Z</time></trkpt><trkpt lat="42.0817601" lon="13.4119917"><ele>983.0</ele><time>2026-04-12T12:51:06.066Z</time></trkpt><trkpt lat="42.0816886" lon="13.4119927"><ele>982.9999999999999</ele><time>2026-04-12T12:51:14.067Z</time></trkpt><trkpt lat="42.0816286" lon="13.412025"><ele>982.9999999999999</ele><time>2026-04-12T12:51:23.067Z</time></trkpt><trkpt lat="42.0815742" lon="13.4120686"><ele>983.0</ele><time>2026-04-12T12:51:30.065Z</time></trkpt><trkpt lat="42.0815088" lon="13.4120976"><ele>982.9999999999999</ele><time>2026-04-12T12:51:37.067Z</time></trkpt><trkpt lat="42.0814567" lon="13.412159"><ele>982.9999999999999</ele><time>2026-04-12T12:51:45.067Z</time></trkpt><trkpt lat="42.0814045" lon="13.4122072"><ele>981.8571428571427</ele><time>2026-04-12T12:51:56.073Z</time></trkpt><trkpt lat="42.0813556" lon="13.4122645"><ele>980.7142857142857</ele><time>2026-04-12T12:52:08.066Z</time></trkpt><trkpt lat="42.0813558" lon="13.4123593"><ele>979.5714285714284</ele><time>2026-04-12T12:52:27.067Z</time></trkpt><trkpt lat="42.0813619" lon="13.4124489"><ele>978.4285714285713</ele><time>2026-04-12T12:52:54.067Z</time></trkpt><trkpt lat="42.0813216" lon="13.4125265"><ele>977.2857142857142</ele><time>2026-04-12T12:53:02.068Z</time></trkpt><trkpt lat="42.081255" lon="13.4125092"><ele>976.1428571428571</ele><time>2026-04-12T12:53:35.085Z</time></trkpt><trkpt lat="42.081185" lon="13.4125349"><ele>975.0</ele><time>2026-04-12T12:53:42.085Z</time></trkpt><trkpt lat="42.0811317" lon="13.4125891"><ele>975.0</ele><time>2026-04-12T12:53:49.11Z</time></trkpt><trkpt lat="42.0811012" lon="13.4126676"><ele>974.9999999999999</ele><time>2026-04-12T12:53:56.051Z</time></trkpt><trkpt lat="42.0810595" lon="13.4127314"><ele>975.0</ele><time>2026-04-12T12:54:03.015Z</time></trkpt><trkpt lat="42.0810138" lon="13.4128032"><ele>975.0</ele><time>2026-04-12T12:54:11.085Z</time></trkpt><trkpt lat="42.080968" lon="13.4128676"><ele>974.9999999999999</ele><time>2026-04-12T12:54:50.993Z</time></trkpt><trkpt lat="42.0809034" lon="13.4128394"><ele>975.0</ele><time>2026-04-12T12:55:03.156Z</time></trkpt><trkpt lat="42.0808517" lon="13.4127629"><ele>975.0</ele><time>2026-04-12T12:55:19.085Z</time></trkpt><trkpt lat="42.0808037" lon="13.4127039"><ele>973.7142857142857</ele><time>2026-04-12T12:55:25.048Z</time></trkpt><trkpt lat="42.0807405" lon="13.4127032"><ele>972.4285714285713</ele><time>2026-04-12T12:55:30.067Z</time></trkpt><trkpt lat="42.080694" lon="13.4126268"><ele>971.1428571428571</ele><time>2026-04-12T12:55:36.068Z</time></trkpt><trkpt lat="42.0806591" lon="13.4125531"><ele>969.8571428571429</ele><time>2026-04-12T12:55:42.099Z</time></trkpt><trkpt lat="42.0806423" lon="13.4124707"><ele>968.5714285714286</ele><time>2026-04-12T12:55:48.085Z</time></trkpt><trkpt lat="42.0806359" lon="13.4123767"><ele>967.2857142857142</ele><time>2026-04-12T12:55:55.077Z</time></trkpt><trkpt lat="42.0805743" lon="13.4123356"><ele>966.0</ele><time>2026-04-12T12:56:03.053Z</time></trkpt><trkpt lat="42.0805926" lon="13.4122414"><ele>966.0</ele><time>2026-04-12T12:56:22.086Z</time></trkpt><trkpt lat="42.0806417" lon="13.4121747"><ele>966.0</ele><time>2026-04-12T12:56:28.086Z</time></trkpt><trkpt lat="42.0806748" lon="13.4120921"><ele>966.0</ele><time>2026-04-12T12:56:34.085Z</time></trkpt><trkpt lat="42.0806597" lon="13.412008"><ele>966.0</ele><time>2026-04-12T12:57:09.087Z</time></trkpt><trkpt lat="42.0807176" lon="13.4119433"><ele>966.0</ele><time>2026-04-12T12:57:18.085Z</time></trkpt><trkpt lat="42.0807592" lon="13.4118774"><ele>966.0</ele><time>2026-04-12T12:57:23.086Z</time></trkpt><trkpt lat="42.08076" lon="13.4117861"><ele>966.0</ele><time>2026-04-12T12:57:29.028Z</time></trkpt><trkpt lat="42.080789" lon="13.4117066"><ele>965.7142857142858</ele><time>2026-04-12T12:57:35.085Z</time></trkpt><trkpt lat="42.0808157" lon="13.4116265"><ele>965.4285714285714</ele><time>2026-04-12T12:57:49.085Z</time></trkpt><trkpt lat="42.0808678" lon="13.4115638"><ele>965.1428571428571</ele><time>2026-04-12T12:57:56.105Z</time></trkpt><trkpt lat="42.0809028" lon="13.4114868"><ele>964.8571428571429</ele><time>2026-04-12T12:58:03.085Z</time></trkpt><trkpt lat="42.0809487" lon="13.4114096"><ele>964.5714285714287</ele><time>2026-04-12T12:58:10.089Z</time></trkpt><trkpt lat="42.0809766" lon="13.4113335"><ele>964.2857142857143</ele><time>2026-04-12T12:58:17.066Z</time></trkpt><trkpt lat="42.0810453" lon="13.4113005"><ele>964.0</ele><time>2026-04-12T12:58:22.085Z</time></trkpt><trkpt lat="42.081103" lon="13.4112393"><ele>964.0</ele><time>2026-04-12T12:58:28.098Z</time></trkpt><trkpt lat="42.0811476" lon="13.4111681"><ele>964.0000000000001</ele><time>2026-04-12T12:58:34.047Z</time></trkpt><trkpt lat="42.081197" lon="13.4111061"><ele>964.0</ele><time>2026-04-12T12:58:40.086Z</time></trkpt><trkpt lat="42.0812443" lon="13.4110473"><ele>964.0</ele><time>2026-04-12T12:58:46.105Z</time></trkpt><trkpt lat="42.0812953" lon="13.4109764"><ele>964.0000000000001</ele><time>2026-04-12T12:58:53.086Z</time></trkpt><trkpt lat="42.0813396" lon="13.4108999"><ele>964.0</ele><time>2026-04-12T12:59:00.017Z</time></trkpt><trkpt lat="42.0813973" lon="13.410841"><ele>964.0</ele><time>2026-04-12T12:59:07.086Z</time></trkpt><trkpt lat="42.0814458" lon="13.4107763"><ele>964.0</ele><time>2026-04-12T12:59:18.069Z</time></trkpt><trkpt lat="42.0815036" lon="13.4107163"><ele>964.0000000000001</ele><time>2026-04-12T12:59:24.069Z</time></trkpt><trkpt lat="42.0815631" lon="13.4106646"><ele>964.0</ele><time>2026-04-12T12:59:30.07Z</time></trkpt><trkpt lat="42.0816206" lon="13.4106045"><ele>964.0</ele><time>2026-04-12T12:59:36.069Z</time></trkpt><trkpt lat="42.0816773" lon="13.4105449"><ele>964.0000000000001</ele><time>2026-04-12T12:59:42.085Z</time></trkpt><trkpt lat="42.0817285" lon="13.4104908"><ele>964.0</ele><time>2026-04-12T12:59:47.992Z</time></trkpt><trkpt lat="42.0817742" lon="13.410417"><ele>964.0</ele><time>2026-04-12T12:59:59.01Z</time></trkpt><trkpt lat="42.0818372" lon="13.4103733"><ele>964.2857142857143</ele><time>2026-04-12T13:00:04.086Z</time></trkpt><trkpt lat="42.0819014" lon="13.4103184"><ele>964.5714285714287</ele><time>2026-04-12T13:00:10.085Z</time></trkpt><trkpt lat="42.0819575" lon="13.4102632"><ele>964.8571428571429</ele><time>2026-04-12T13:00:16.085Z</time></trkpt><trkpt lat="42.0820107" lon="13.410196"><ele>965.1428571428571</ele><time>2026-04-12T13:00:22.082Z</time></trkpt><trkpt lat="42.0820644" lon="13.410127"><ele>965.4285714285714</ele><time>2026-04-12T13:00:28.013Z</time></trkpt><trkpt lat="42.0821135" lon="13.4100674"><ele>965.7142857142858</ele><time>2026-04-12T13:00:34.055Z</time></trkpt><trkpt lat="42.0821441" lon="13.4099866"><ele>966.0</ele><time>2026-04-12T13:00:40.995Z</time></trkpt><trkpt lat="42.0821757" lon="13.4099104"><ele>966.0</ele><time>2026-04-12T13:00:53.974Z</time></trkpt><trkpt lat="42.0821476" lon="13.4098216"><ele>966.0</ele><time>2026-04-12T13:01:00.085Z</time></trkpt><trkpt lat="42.0821104" lon="13.4097378"><ele>966.0</ele><time>2026-04-12T13:01:06.086Z</time></trkpt><trkpt lat="42.0820569" lon="13.4096704"><ele>966.0</ele><time>2026-04-12T13:01:11.086Z</time></trkpt><trkpt lat="42.0820209" lon="13.4095921"><ele>966.0</ele><time>2026-04-12T13:01:17.07Z</time></trkpt><trkpt lat="42.0819884" lon="13.4095151"><ele>966.0</ele><time>2026-04-12T13:01:23.086Z</time></trkpt><trkpt lat="42.0819644" lon="13.4094235"><ele>966.0</ele><time>2026-04-12T13:01:30.091Z</time></trkpt><trkpt lat="42.0819288" lon="13.4093472"><ele>965.8571428571429</ele><time>2026-04-12T13:01:36.094Z</time></trkpt><trkpt lat="42.0818865" lon="13.4092784"><ele>965.7142857142858</ele><time>2026-04-12T13:01:42.085Z</time></trkpt><trkpt lat="42.0818567" lon="13.4091936"><ele>965.5714285714286</ele><time>2026-04-12T13:01:48.1Z</time></trkpt><trkpt lat="42.0818094" lon="13.4091321"><ele>965.4285714285714</ele><time>2026-04-12T13:01:54.085Z</time></trkpt><trkpt lat="42.081771" lon="13.4090521"><ele>965.2857142857143</ele><time>2026-04-12T13:02:01.085Z</time></trkpt><trkpt lat="42.0817316" lon="13.4089703"><ele>965.1428571428571</ele><time>2026-04-12T13:02:08.086Z</time></trkpt><trkpt lat="42.0816953" lon="13.4088892"><ele>965.0</ele><time>2026-04-12T13:02:22.104Z</time></trkpt><trkpt lat="42.081647" lon="13.4088079"><ele>964.1428571428571</ele><time>2026-04-12T13:02:27.085Z</time></trkpt><trkpt lat="42.0816052" lon="13.4087204"><ele>963.2857142857143</ele><time>2026-04-12T13:02:33.146Z</time></trkpt><trkpt lat="42.0815932" lon="13.4086306"><ele>962.4285714285714</ele><time>2026-04-12T13:02:40.085Z</time></trkpt><trkpt lat="42.0815583" lon="13.4085427"><ele>961.5714285714286</ele><time>2026-04-12T13:02:47.085Z</time></trkpt><trkpt lat="42.0815223" lon="13.4084721"><ele>960.7142857142858</ele><time>2026-04-12T13:02:52.086Z</time></trkpt><trkpt lat="42.0815212" lon="13.4083811"><ele>959.8571428571429</ele><time>2026-04-12T13:03:01.085Z</time></trkpt><trkpt lat="42.0814601" lon="13.4083434"><ele>959.0</ele><time>2026-04-12T13:03:09.086Z</time></trkpt><trkpt lat="42.0813924" lon="13.4083208"><ele>959.4285714285714</ele><time>2026-04-12T13:03:15.053Z</time></trkpt><trkpt lat="42.0813286" lon="13.4082778"><ele>959.8571428571429</ele><time>2026-04-12T13:03:21.085Z</time></trkpt><trkpt lat="42.0812759" lon="13.4082288"><ele>960.2857142857142</ele><time>2026-04-12T13:03:26.087Z</time></trkpt><trkpt lat="42.0812192" lon="13.4081687"><ele>960.7142857142857</ele><time>2026-04-12T13:03:32.111Z</time></trkpt><trkpt lat="42.0811637" lon="13.4081168"><ele>961.1428571428571</ele><time>2026-04-12T13:03:38.055Z</time></trkpt><trkpt lat="42.081104" lon="13.4080733"><ele>961.5714285714284</ele><time>2026-04-12T13:03:44.095Z</time></trkpt><trkpt lat="42.0810786" lon="13.407992"><ele>961.9999999999999</ele><time>2026-04-12T13:03:51.085Z</time></trkpt><trkpt lat="42.0810101" lon="13.4079602"><ele>961.9999999999999</ele><time>2026-04-12T13:05:09.065Z</time></trkpt><trkpt lat="42.0809362" lon="13.4079539"><ele>962.0</ele><time>2026-04-12T13:05:16.068Z</time></trkpt><trkpt lat="42.0808721" lon="13.4079512"><ele>961.9999999999999</ele><time>2026-04-12T13:05:21.065Z</time></trkpt><trkpt lat="42.0808071" lon="13.4079731"><ele>961.9999999999999</ele><time>2026-04-12T13:05:27.066Z</time></trkpt><trkpt lat="42.0807461" lon="13.4080168"><ele>962.0</ele><time>2026-04-12T13:05:33.067Z</time></trkpt><trkpt lat="42.0806906" lon="13.4080686"><ele>961.9999999999999</ele><time>2026-04-12T13:05:39.068Z</time></trkpt><trkpt lat="42.0806279" lon="13.4081094"><ele>961.9999999999999</ele><time>2026-04-12T13:05:45.066Z</time></trkpt><trkpt lat="42.0805683" lon="13.4081538"><ele>963.142857142857</ele><time>2026-04-12T13:05:53.085Z</time></trkpt><trkpt lat="42.0805045" lon="13.4082038"><ele>964.2857142857142</ele><time>2026-04-12T13:06:00.086Z</time></trkpt><trkpt lat="42.0804574" lon="13.4082603"><ele>965.4285714285714</ele><time>2026-04-12T13:06:06.085Z</time></trkpt><trkpt lat="42.0804005" lon="13.4083211"><ele>966.5714285714286</ele><time>2026-04-12T13:06:13.148Z</time></trkpt><trkpt lat="42.0803457" lon="13.4083634"><ele>967.7142857142858</ele><time>2026-04-12T13:06:19.086Z</time></trkpt><trkpt lat="42.0802922" lon="13.4084106"><ele>968.857142857143</ele><time>2026-04-12T13:06:25.085Z</time></trkpt><trkpt lat="42.0802327" lon="13.4084649"><ele>970.0000000000001</ele><time>2026-04-12T13:06:45.085Z</time></trkpt><trkpt lat="42.0801761" lon="13.4085282"><ele>970.0000000000001</ele><time>2026-04-12T13:06:52.086Z</time></trkpt><trkpt lat="42.0801258" lon="13.4085797"><ele>970.0</ele><time>2026-04-12T13:06:57.085Z</time></trkpt><trkpt lat="42.0800745" lon="13.4086468"><ele>970.0000000000001</ele><time>2026-04-12T13:07:03.089Z</time></trkpt><trkpt lat="42.0800219" lon="13.4087129"><ele>970.0000000000001</ele><time>2026-04-12T13:07:10.086Z</time></trkpt><trkpt lat="42.0799664" lon="13.4087676"><ele>970.0</ele><time>2026-04-12T13:07:16.033Z</time></trkpt><trkpt lat="42.079918" lon="13.4088268"><ele>970.0000000000001</ele><time>2026-04-12T13:07:21.097Z</time></trkpt><trkpt lat="42.0798823" lon="13.4089137"><ele>970.0000000000001</ele><time>2026-04-12T13:07:28.054Z</time></trkpt><trkpt lat="42.0798243" lon="13.4089588"><ele>969.7142857142858</ele><time>2026-04-12T13:07:35.085Z</time></trkpt><trkpt lat="42.0797751" lon="13.4090182"><ele>969.4285714285714</ele><time>2026-04-12T13:07:48.085Z</time></trkpt><trkpt lat="42.0797361" lon="13.4090938"><ele>969.1428571428571</ele><time>2026-04-12T13:07:54.095Z</time></trkpt><trkpt lat="42.0796856" lon="13.4091554"><ele>968.8571428571429</ele><time>2026-04-12T13:08:00.085Z</time></trkpt><trkpt lat="42.0797497" lon="13.4091771"><ele>968.5714285714284</ele><time>2026-04-12T13:08:08.99Z</time></trkpt><trkpt lat="42.0797808" lon="13.4092576"><ele>968.2857142857142</ele><time>2026-04-12T13:08:15.066Z</time></trkpt><trkpt lat="42.0797218" lon="13.4092939"><ele>968.0</ele><time>2026-04-12T13:08:20.085Z</time></trkpt><trkpt lat="42.0796444" lon="13.4092966"><ele>968.0</ele><time>2026-04-12T13:09:18.065Z</time></trkpt><trkpt lat="42.0797349" lon="13.4093011"><ele>967.9999999999999</ele><time>2026-04-12T13:11:40.068Z</time></trkpt><trkpt lat="42.0797862" lon="13.4092509"><ele>968.0</ele><time>2026-04-12T13:12:00.065Z</time></trkpt><trkpt lat="42.0798536" lon="13.4092373"><ele>968.0</ele><time>2026-04-12T13:12:08.066Z</time></trkpt><trkpt lat="42.0799195" lon="13.409221"><ele>967.9999999999999</ele><time>2026-04-12T13:12:26.067Z</time></trkpt><trkpt lat="42.0799669" lon="13.4091632"><ele>968.0</ele><time>2026-04-12T13:12:34.064Z</time></trkpt><trkpt lat="42.0798996" lon="13.4092298"><ele>968.0</ele><time>2026-04-12T13:16:07.066Z</time></trkpt><trkpt lat="42.0798447" lon="13.4091819"><ele>968.0</ele><time>2026-04-12T13:16:22.068Z</time></trkpt><trkpt lat="42.0797892" lon="13.4091392"><ele>967.9999999999999</ele><time>2026-04-12T13:16:37.067Z</time></trkpt><trkpt lat="42.07972" lon="13.4091222"><ele>968.0</ele><time>2026-04-12T13:16:46.07Z</time></trkpt><trkpt lat="42.079649" lon="13.4091221"><ele>968.0</ele><time>2026-04-12T13:16:53.099Z</time></trkpt><trkpt lat="42.0795839" lon="13.4091495"><ele>967.9999999999999</ele><time>2026-04-12T13:17:00.065Z</time></trkpt><trkpt lat="42.0795234" lon="13.4092086"><ele>968.0</ele><time>2026-04-12T13:17:07.086Z</time></trkpt><trkpt lat="42.0794557" lon="13.4092366"><ele>968.0</ele><time>2026-04-12T13:17:17.063Z</time></trkpt><trkpt lat="42.0794273" lon="13.4093227"><ele>968.0</ele><time>2026-04-12T13:17:23.082Z</time></trkpt><trkpt lat="42.0793817" lon="13.4093989"><ele>967.9999999999999</ele><time>2026-04-12T13:17:33.065Z</time></trkpt><trkpt lat="42.0793217" lon="13.4094506"><ele>968.0</ele><time>2026-04-12T13:17:40.133Z</time></trkpt><trkpt lat="42.079267" lon="13.4094961"><ele>968.0</ele><time>2026-04-12T13:17:45.085Z</time></trkpt><trkpt lat="42.0792379" lon="13.4095728"><ele>967.9999999999999</ele><time>2026-04-12T13:18:33.085Z</time></trkpt><trkpt lat="42.0791861" lon="13.4096388"><ele>968.0</ele><time>2026-04-12T13:18:38.085Z</time></trkpt><trkpt lat="42.0791412" lon="13.4097045"><ele>968.0</ele><time>2026-04-12T13:18:45.126Z</time></trkpt><trkpt lat="42.0791057" lon="13.4097884"><ele>968.7142857142857</ele><time>2026-04-12T13:18:52.086Z</time></trkpt><trkpt lat="42.0790776" lon="13.4098748"><ele>969.4285714285713</ele><time>2026-04-12T13:18:58.086Z</time></trkpt><trkpt lat="42.0790301" lon="13.4099472"><ele>970.1428571428571</ele><time>2026-04-12T13:19:04.095Z</time></trkpt><trkpt lat="42.0789739" lon="13.4099933"><ele>970.8571428571429</ele><time>2026-04-12T13:19:10.086Z</time></trkpt><trkpt lat="42.078918" lon="13.4100357"><ele>971.5714285714286</ele><time>2026-04-12T13:19:16.086Z</time></trkpt><trkpt lat="42.078873" lon="13.4100995"><ele>972.2857142857142</ele><time>2026-04-12T13:19:22.104Z</time></trkpt><trkpt lat="42.0789368" lon="13.410046"><ele>973.0</ele><time>2026-04-12T13:19:38.065Z</time></trkpt><trkpt lat="42.0790183" lon="13.4099802"><ele>973.0</ele><time>2026-04-12T13:20:04.085Z</time></trkpt><trkpt lat="42.0790721" lon="13.4099353"><ele>973.0</ele><time>2026-04-12T13:20:09.011Z</time></trkpt><trkpt lat="42.0791118" lon="13.4098625"><ele>973.0</ele><time>2026-04-12T13:20:15.009Z</time></trkpt><trkpt lat="42.0791501" lon="13.409783"><ele>973.0</ele><time>2026-04-12T13:20:21.024Z</time></trkpt><trkpt lat="42.0792005" lon="13.4097163"><ele>973.0</ele><time>2026-04-12T13:20:27.092Z</time></trkpt><trkpt lat="42.0791804" lon="13.4096329"><ele>973.0</ele><time>2026-04-12T13:20:34.085Z</time></trkpt><trkpt lat="42.0792347" lon="13.4095819"><ele>973.0</ele><time>2026-04-12T13:20:40.028Z</time></trkpt><trkpt lat="42.079206" lon="13.4095027"><ele>968.0</ele><time>2026-04-12T13:20:47.085Z</time></trkpt><trkpt lat="42.0791488" lon="13.4095482"><ele>968.0</ele><time>2026-04-12T13:20:52.085Z</time></trkpt><trkpt lat="42.0790856" lon="13.4095584"><ele>962.0</ele><time>2026-04-12T13:20:58.084Z</time></trkpt><trkpt lat="42.0790139" lon="13.4095703"><ele>962.0</ele><time>2026-04-12T13:21:08.086Z</time></trkpt></trkseg></trk></gpx>